Time,TemperatureF,DewpointF,PressureIn,WindDirection,WindDirectionDegrees,WindSpeedMPH,WindSpeedGustMPH,Humidity,HourlyPrecipIn,Conditions,Clouds,dailyrainin,SoftwareType,DateUTC
2013-10-19 00:00:00,45.5,28.9,29.96,West,270,0.0,0.0,52,0.00,,OVC110,0.00,VWS V14.01,2013-10-19 05:00:00,
2013-10-19 00:02:00,45.5,28.9,29.96,West,270,0.0,0.0,52,0.00,,OVC110,0.00,VWS V14.01,2013-10-19 05:02:00,
2013-10-19 00:03:00,45.3,28.7,29.96,West,270,0.0,0.0,52,0.00,,OVC110,0.00,VWS V14.01,2013-10-19 05:03:00,
2013-10-19 00:04:00,45.5,28.9,29.96,West,270,0.0,0.0,52,0.00,,OVC110,0.00,VWS V14.01,2013-10-19 05:04:00,
2013-10-19 00:05:00,45.5,28.9,29.96,West,270,0.0,0.0,52,0.00,,OVC110,0.00,VWS V14.01,2013-10-19 05:05:00,
2013-10-19 00:09:00,45.5,28.4,29.96,West,270,0.0,0.0,51,0.00,,OVC110,0.00,VWS V14.01,2013-10-19 05:09:00,
2013-10-19 00:10:00,45.3,28.7,29.96,West,270,0.0,0.0,52,0.00,,OVC110,0.00,VWS V14.01,2013-10-19 05:10:00,
2013-10-19 00:11:00,45.5,28.4,29.96,West,270,0.0,0.0,51,0.00,,OVC110,0.00,VWS V14.01,2013-10-19 05:11:00,
2013-10-19 00:14:00,45.3,28.7,29.96,West,270,0.0,0.0,52,0.00,,OVC110,0.00,VWS V14.01,2013-10-19 05:14:00,
2013-10-19 00:16:00,45.3,28.7,29.96,West,270,0.0,0.0,52,0.00,,OVC110,0.00,VWS V14.01,2013-10-19 05:16:00,
2013-10-19 00:18:00,45.3,28.7,29.96,West,270,0.0,0.0,52,0.00,,OVC110,0.00,VWS V14.01,2013-10-19 05:18:00,
2013-10-19 00:19:00,45.3,28.7,29.96,West,270,0.0,0.0,52,0.00,,OVC110,0.00,VWS V14.01,2013-10-19 05:19:00,
2013-10-19 00:20:00,45.3,28.7,29.96,West,270,0.0,0.0,52,0.00,,OVC110,0.00,VWS V14.01,2013-10-19 05:20:00,
2013-10-19 00:21:00,45.1,28.5,29.96,West,270,0.0,0.0,52,0.00,,OVC110,0.00,VWS V14.01,2013-10-19 05:21:00,
2013-10-19 00:22:00,45.3,28.2,29.95,West,270,0.0,0.0,51,0.00,,OVC110,0.00,VWS V14.01,2013-10-19 05:22:00,
2013-10-19 00:26:00,45.1,28.1,29.95,West,270,0.0,0.0,51,0.00,,OVC110,0.00,VWS V14.01,2013-10-19 05:26:00,
2013-10-19 00:27:00,45.1,28.1,29.95,West,270,0.0,0.0,51,0.00,,OVC110,0.00,VWS V14.01,2013-10-19 05:27:00,
2013-10-19 00:28:00,45.1,28.1,29.95,West,270,0.0,0.0,51,0.00,,OVC110,0.00,VWS V14.01,2013-10-19 05:28:00,
2013-10-19 00:30:00,44.9,27.9,29.95,West,270,0.0,0.0,51,0.00,,OVC110,0.00,VWS V14.01,2013-10-19 05:30:00,
2013-10-19 00:32:00,44.9,27.9,29.95,West,270,0.0,0.0,51,0.00,,OVC110,0.00,VWS V14.01,2013-10-19 05:32:00,
2013-10-19 00:33:00,44.9,27.9,29.94,West,270,0.0,0.0,51,0.00,,OVC110,0.00,VWS V14.01,2013-10-19 05:33:00,
2013-10-19 00:34:00,44.9,27.9,29.94,West,270,0.0,0.0,51,0.00,,OVC110,0.00,VWS V14.01,2013-10-19 05:34:00,
2013-10-19 00:36:00,44.9,27.9,29.94,West,270,0.0,0.0,51,0.00,,OVC110,0.00,VWS V14.01,2013-10-19 05:36:00,
2013-10-19 00:38:00,44.9,27.9,29.94,West,270,1.6,1.6,51,0.00,,OVC110,0.00,VWS V14.01,2013-10-19 05:38:00,
2013-10-19 00:39:00,44.9,27.9,29.94,West,270,1.6,1.6,51,0.00,,OVC110,0.00,VWS V14.01,2013-10-19 05:39:00,
2013-10-19 00:40:00,44.9,27.9,29.94,West,270,0.0,1.6,51,0.00,,OVC100,0.00,VWS V14.01,2013-10-19 05:40:00,
2013-10-19 00:43:00,44.7,27.7,29.94,West,270,0.0,0.0,51,0.00,,OVC100,0.00,VWS V14.01,2013-10-19 05:43:00,
2013-10-19 00:44:00,44.7,27.7,29.94,West,270,0.0,0.0,51,0.00,,OVC100,0.00,VWS V14.01,2013-10-19 05:44:00,
2013-10-19 00:45:00,44.7,27.7,29.94,West,270,0.0,0.0,51,0.00,,OVC100,0.00,VWS V14.01,2013-10-19 05:45:00,
2013-10-19 00:46:00,44.6,27.6,29.94,West,270,0.0,0.0,51,0.00,,OVC100,0.00,VWS V14.01,2013-10-19 05:46:00,
2013-10-19 00:47:00,44.6,27.6,29.94,West,270,0.0,0.0,51,0.00,,OVC100,0.00,VWS V14.01,2013-10-19 05:47:00,
2013-10-19 00:48:00,44.6,27.6,29.94,West,270,0.0,0.0,51,0.00,,OVC100,0.00,VWS V14.01,2013-10-19 05:48:00,
2013-10-19 00:50:00,44.7,27.7,29.94,West,270,0.0,0.0,51,0.00,,OVC100,0.00,VWS V14.01,2013-10-19 05:50:00,
2013-10-19 00:52:00,44.6,27.6,29.94,West,270,0.0,0.0,51,0.00,,OVC100,0.00,VWS V14.01,2013-10-19 05:52:00,
2013-10-19 00:54:00,44.7,27.7,29.94,West,270,0.0,0.0,51,0.00,,OVC100,0.00,VWS V14.01,2013-10-19 05:54:00,
2013-10-19 00:56:00,44.6,27.6,29.94,West,270,0.0,2.2,51,0.00,,OVC100,0.00,VWS V14.01,2013-10-19 05:56:00,
2013-10-19 00:57:00,44.6,27.6,29.94,West,270,0.0,0.0,51,0.00,,OVC100,0.00,VWS V14.01,2013-10-19 05:57:00,
2013-10-19 00:58:00,44.6,27.6,29.94,West,270,0.0,0.0,51,0.00,,OVC100,0.00,VWS V14.01,2013-10-19 05:58:00,
2013-10-19 01:00:00,44.4,27.4,29.94,West,270,0.0,0.0,51,0.00,,OVC100,0.00,VWS V14.01,2013-10-19 06:00:00,
2013-10-19 01:03:00,44.4,27.4,29.94,West,270,0.0,0.0,51,0.00,,OVC100,0.00,VWS V14.01,2013-10-19 06:03:00,
2013-10-19 01:04:00,44.4,27.4,29.94,West,270,0.0,0.0,51,0.00,,OVC100,0.00,VWS V14.01,2013-10-19 06:04:00,
2013-10-19 01:06:00,44.2,27.2,29.93,West,270,0.0,0.0,51,0.00,,OVC100,0.00,VWS V14.01,2013-10-19 06:06:00,
2013-10-19 01:07:00,44.2,27.2,29.94,West,270,0.0,0.0,51,0.00,,OVC100,0.00,VWS V14.01,2013-10-19 06:07:00,
2013-10-19 01:08:00,44.4,27.4,29.93,West,270,0.0,0.0,51,0.00,,OVC100,0.00,VWS V14.01,2013-10-19 06:08:00,
2013-10-19 01:10:00,44.4,27.4,29.94,West,270,0.0,0.0,51,0.00,,OVC100,0.00,VWS V14.01,2013-10-19 06:10:00,
2013-10-19 01:12:00,44.2,27.2,29.94,West,270,0.0,0.0,51,0.00,,OVC100,0.00,VWS V14.01,2013-10-19 06:12:00,
2013-10-19 01:13:00,44.2,27.2,29.93,West,270,0.0,0.0,51,0.00,,OVC100,0.00,VWS V14.01,2013-10-19 06:13:00,
2013-10-19 01:14:00,44.2,27.2,29.93,West,270,0.0,0.0,51,0.00,,OVC100,0.00,VWS V14.01,2013-10-19 06:14:00,
2013-10-19 01:16:00,44.2,27.2,29.93,West,270,2.2,2.2,51,0.00,,OVC100,0.00,VWS V14.01,2013-10-19 06:16:00,
2013-10-19 01:19:00,44.0,27.0,29.93,West,270,0.0,0.0,51,0.00,,OVC100,0.00,VWS V14.01,2013-10-19 06:19:00,
2013-10-19 01:20:00,44.0,27.0,29.93,West,270,0.0,0.0,51,0.00,,OVC100,0.00,VWS V14.01,2013-10-19 06:20:00,
2013-10-19 01:21:00,44.0,27.0,29.93,West,270,0.0,0.0,51,0.00,,OVC100,0.00,VWS V14.01,2013-10-19 06:21:00,
2013-10-19 01:22:00,44.2,27.2,29.93,West,270,0.0,0.0,51,0.00,,OVC100,0.00,VWS V14.01,2013-10-19 06:22:00,
2013-10-19 01:24:00,44.0,27.0,29.93,West,270,1.2,1.2,51,0.00,,OVC100,0.00,VWS V14.01,2013-10-19 06:24:00,
2013-10-19 01:26:00,44.0,27.0,29.93,West,270,0.0,0.0,51,0.00,,OVC100,0.00,VWS V14.01,2013-10-19 06:26:00,
2013-10-19 01:27:00,44.0,27.0,29.93,West,270,0.0,0.0,51,0.00,,OVC100,0.00,VWS V14.01,2013-10-19 06:27:00,
2013-10-19 01:30:00,43.8,26.9,29.93,West,270,0.0,0.0,51,0.00,,OVC100,0.00,VWS V14.01,2013-10-19 06:30:00,
2013-10-19 01:32:00,43.7,26.8,29.93,West,270,0.0,0.0,51,0.00,,OVC100,0.00,VWS V14.01,2013-10-19 06:32:00,
2013-10-19 01:35:00,43.7,26.8,29.93,West,270,0.0,0.0,51,0.00,,OVC100,0.00,VWS V14.01,2013-10-19 06:35:00,
2013-10-19 01:36:00,43.7,26.8,29.93,West,270,0.0,0.0,51,0.00,,OVC100,0.00,VWS V14.01,2013-10-19 06:36:00,
2013-10-19 01:37:00,43.7,26.8,29.93,West,270,2.6,2.6,51,0.00,,OVC100,0.00,VWS V14.01,2013-10-19 06:37:00,
2013-10-19 01:38:00,43.7,26.8,29.93,West,270,0.0,2.6,51,0.00,,OVC100,0.00,VWS V14.01,2013-10-19 06:38:00,
2013-10-19 01:40:00,43.7,26.8,29.93,West,270,0.0,2.6,51,0.00,,OVC110,0.00,VWS V14.01,2013-10-19 06:40:00,
2013-10-19 01:42:00,43.5,26.6,29.93,West,270,0.0,0.0,51,0.00,,OVC110,0.00,VWS V14.01,2013-10-19 06:42:00,
2013-10-19 01:44:00,43.5,26.6,29.93,West,270,0.0,0.0,51,0.00,,OVC110,0.00,VWS V14.01,2013-10-19 06:44:00,
2013-10-19 01:45:00,43.5,26.6,29.93,West,270,0.0,0.0,51,0.00,,OVC110,0.00,VWS V14.01,2013-10-19 06:45:00,
2013-10-19 01:47:00,43.5,26.6,29.93,West,270,0.0,0.0,51,0.00,,OVC110,0.00,VWS V14.01,2013-10-19 06:47:00,
2013-10-19 01:48:00,43.5,27.1,29.93,West,270,0.0,0.0,52,0.00,,OVC110,0.00,VWS V14.01,2013-10-19 06:48:00,
2013-10-19 01:50:00,43.5,27.1,29.93,West,270,0.0,0.0,52,0.00,,OVC110,0.00,VWS V14.01,2013-10-19 06:50:00,
2013-10-19 01:52:00,43.3,26.9,29.93,West,270,0.0,0.0,52,0.00,,OVC110,0.00,VWS V14.01,2013-10-19 06:52:00,
2013-10-19 01:53:00,43.3,26.9,29.93,West,270,0.0,0.0,52,0.00,,OVC110,0.00,VWS V14.01,2013-10-19 06:53:00,
2013-10-19 01:54:00,43.3,26.9,29.93,West,270,0.0,0.0,52,0.00,,OVC110,0.00,VWS V14.01,2013-10-19 06:54:00,
2013-10-19 01:55:00,43.3,26.9,29.93,West,270,0.0,0.0,52,0.00,,OVC110,0.00,VWS V14.01,2013-10-19 06:55:00,
2013-10-19 01:58:00,43.1,26.7,29.93,West,270,3.0,3.0,52,0.00,,OVC110,0.00,VWS V14.01,2013-10-19 06:58:00,
2013-10-19 02:00:00,43.3,26.9,29.93,West,270,0.0,3.0,52,0.00,,OVC110,0.00,VWS V14.01,2013-10-19 07:00:00,
2013-10-19 02:04:00,43.1,26.7,29.93,West,270,0.0,0.0,52,0.00,,OVC110,0.00,VWS V14.01,2013-10-19 07:04:00,
2013-10-19 02:05:00,43.1,26.7,29.93,West,270,4.0,4.0,52,0.00,,OVC110,0.00,VWS V14.01,2013-10-19 07:05:00,
2013-10-19 02:06:00,43.1,26.7,29.93,West,270,0.0,4.0,52,0.00,,OVC110,0.00,VWS V14.01,2013-10-19 07:06:00,
2013-10-19 02:08:00,43.1,26.7,29.93,West,270,0.0,0.0,52,0.00,,OVC110,0.00,VWS V14.01,2013-10-19 07:08:00,
2013-10-19 02:09:00,43.1,26.7,29.93,West,270,0.0,0.0,52,0.00,,OVC110,0.00,VWS V14.01,2013-10-19 07:09:00,
2013-10-19 02:10:00,43.1,26.7,29.93,West,270,0.0,0.0,52,0.00,,OVC110,0.00,VWS V14.01,2013-10-19 07:10:00,
2013-10-19 02:12:00,42.9,26.5,29.93,West,270,3.4,3.4,52,0.00,,OVC110,0.00,VWS V14.01,2013-10-19 07:12:00,
2013-10-19 02:14:00,42.9,26.5,29.93,West,270,0.0,3.4,52,0.00,,OVC110,0.00,VWS V14.01,2013-10-19 07:14:00,
2013-10-19 02:15:00,42.9,26.5,29.92,West,270,0.0,0.0,52,0.00,,OVC110,0.00,VWS V14.01,2013-10-19 07:15:00,
2013-10-19 02:17:00,42.9,26.5,29.92,West,270,0.0,0.0,52,0.00,,OVC110,0.00,VWS V14.01,2013-10-19 07:17:00,
2013-10-19 02:18:00,42.9,26.5,29.92,West,270,0.0,0.0,52,0.00,,OVC110,0.00,VWS V14.01,2013-10-19 07:18:00,
2013-10-19 02:19:00,42.9,26.5,29.92,West,270,0.0,0.0,52,0.00,,OVC110,0.00,VWS V14.01,2013-10-19 07:19:00,
2013-10-19 02:20:00,42.9,26.5,29.92,West,270,0.0,0.0,52,0.00,,OVC110,0.00,VWS V14.01,2013-10-19 07:20:00,
2013-10-19 02:22:00,42.9,26.5,29.92,West,270,0.0,0.0,52,0.00,,OVC110,0.00,VWS V14.01,2013-10-19 07:22:00,
2013-10-19 02:24:00,42.9,26.5,29.92,West,270,0.0,0.0,52,0.00,,OVC110,0.00,VWS V14.01,2013-10-19 07:24:00,
2013-10-19 02:26:00,42.9,26.5,29.92,West,270,0.0,0.0,52,0.00,,OVC110,0.00,VWS V14.01,2013-10-19 07:26:00,
2013-10-19 02:28:00,42.9,26.5,29.92,West,270,0.0,0.0,52,0.00,,OVC110,0.00,VWS V14.01,2013-10-19 07:28:00,
2013-10-19 02:29:00,42.9,26.5,29.92,West,270,0.0,0.0,52,0.00,,OVC110,0.00,VWS V14.01,2013-10-19 07:29:00,
2013-10-19 02:30:00,42.9,26.5,29.92,West,270,0.0,0.0,52,0.00,,OVC110,0.00,VWS V14.01,2013-10-19 07:30:00,
2013-10-19 02:32:00,42.9,26.5,29.92,West,270,0.0,0.0,52,0.00,,OVC110,0.00,VWS V14.01,2013-10-19 07:32:00,
2013-10-19 02:34:00,42.6,26.2,29.92,West,270,0.0,0.0,52,0.00,,OVC110,0.00,VWS V14.01,2013-10-19 07:34:00,
2013-10-19 02:35:00,42.6,26.2,29.92,West,270,0.0,0.0,52,0.00,,OVC110,0.00,VWS V14.01,2013-10-19 07:35:00,
2013-10-19 02:36:00,42.6,26.2,29.92,WSW,248,0.0,0.0,52,0.00,,OVC110,0.00,VWS V14.01,2013-10-19 07:36:00,
2013-10-19 02:39:00,42.9,26.5,29.92,WSW,248,0.0,0.0,52,0.00,,OVC110,0.00,VWS V14.01,2013-10-19 07:39:00,
2013-10-19 02:40:00,42.8,26.4,29.92,WSW,248,0.0,0.0,52,0.00,,SCT120,0.00,VWS V14.01,2013-10-19 07:40:00,
2013-10-19 02:41:00,42.9,26.5,29.92,West,270,0.0,0.0,52,0.00,,SCT120,0.00,VWS V14.01,2013-10-19 07:41:00,
2013-10-19 02:42:00,42.8,26.4,29.92,West,270,0.0,0.0,52,0.00,,SCT120,0.00,VWS V14.01,2013-10-19 07:42:00,
2013-10-19 02:44:00,42.9,26.5,29.91,West,270,0.0,0.0,52,0.00,,SCT120,0.00,VWS V14.01,2013-10-19 07:44:00,
2013-10-19 02:46:00,42.9,27.0,29.91,West,270,0.0,0.0,53,0.00,,SCT120,0.00,VWS V14.01,2013-10-19 07:46:00,
2013-10-19 02:47:00,42.9,26.5,29.91,West,270,0.0,0.0,52,0.00,,SCT120,0.00,VWS V14.01,2013-10-19 07:47:00,
2013-10-19 02:51:00,42.8,26.4,29.91,West,270,0.0,0.0,52,0.00,,SCT120,0.00,VWS V14.01,2013-10-19 07:51:00,
2013-10-19 02:52:00,42.9,27.0,29.91,West,270,5.2,5.2,53,0.00,,SCT120,0.00,VWS V14.01,2013-10-19 07:52:00,
2013-10-19 02:55:00,42.9,26.5,29.91,West,270,0.0,0.0,52,0.00,,SCT120,0.00,VWS V14.01,2013-10-19 07:55:00,
2013-10-19 02:56:00,42.9,26.5,29.91,West,270,0.0,0.0,52,0.00,,SCT120,0.00,VWS V14.01,2013-10-19 07:56:00,
2013-10-19 02:57:00,42.8,26.4,29.91,West,270,0.0,0.0,52,0.00,,SCT120,0.00,VWS V14.01,2013-10-19 07:57:00,
2013-10-19 02:58:00,42.8,26.4,29.91,West,270,0.0,0.0,52,0.00,,SCT120,0.00,VWS V14.01,2013-10-19 07:58:00,
2013-10-19 03:00:00,42.6,26.2,29.91,West,270,2.6,2.6,52,0.00,,SCT120,0.00,VWS V14.01,2013-10-19 08:00:00,
2013-10-19 03:03:00,42.8,26.9,29.91,West,270,0.0,0.0,53,0.00,,SCT120,0.00,VWS V14.01,2013-10-19 08:03:00,
2013-10-19 03:04:00,42.6,26.2,29.91,West,270,0.0,0.0,52,0.00,,SCT120,0.00,VWS V14.01,2013-10-19 08:04:00,
2013-10-19 03:06:00,42.4,26.5,29.91,WNW,292,0.0,0.0,53,0.00,,SCT120,0.00,VWS V14.01,2013-10-19 08:06:00,
2013-10-19 03:08:00,42.6,26.7,29.91,West,270,0.0,0.0,53,0.00,,SCT120,0.00,VWS V14.01,2013-10-19 08:08:00,
2013-10-19 03:10:00,42.4,26.5,29.91,West,270,0.0,0.0,53,0.00,,SCT120,0.00,VWS V14.01,2013-10-19 08:10:00,
2013-10-19 03:12:00,42.4,26.5,29.91,West,270,0.0,0.0,53,0.00,,SCT120,0.00,VWS V14.01,2013-10-19 08:12:00,
2013-10-19 03:13:00,42.4,26.5,29.91,West,270,0.0,0.0,53,0.00,,SCT120,0.00,VWS V14.01,2013-10-19 08:13:00,
2013-10-19 03:14:00,42.4,26.5,29.91,West,270,0.0,0.0,53,0.00,,SCT120,0.00,VWS V14.01,2013-10-19 08:14:00,
2013-10-19 03:15:00,42.4,26.5,29.90,West,270,0.0,0.0,53,0.00,,SCT120,0.00,VWS V14.01,2013-10-19 08:15:00,
2013-10-19 03:17:00,42.4,26.5,29.90,West,270,0.0,0.0,53,0.00,,SCT120,0.00,VWS V14.01,2013-10-19 08:17:00,
2013-10-19 03:19:00,42.4,26.5,29.90,West,270,0.0,0.0,53,0.00,,SCT120,0.00,VWS V14.01,2013-10-19 08:19:00,
2013-10-19 03:20:00,42.4,26.5,29.90,West,270,2.6,2.6,53,0.00,,SCT120,0.00,VWS V14.01,2013-10-19 08:20:00,
2013-10-19 03:21:00,42.4,26.5,29.90,West,270,0.0,2.6,53,0.00,,SCT120,0.00,VWS V14.01,2013-10-19 08:21:00,
2013-10-19 03:22:00,42.4,26.5,29.90,West,270,0.0,2.6,53,0.00,,SCT120,0.00,VWS V14.01,2013-10-19 08:22:00,
2013-10-19 03:24:00,42.4,26.5,29.90,West,270,0.0,4.0,53,0.00,,SCT120,0.00,VWS V14.01,2013-10-19 08:24:00,
2013-10-19 03:26:00,42.4,26.5,29.90,West,270,1.6,1.6,53,0.00,,SCT120,0.00,VWS V14.01,2013-10-19 08:26:00,
2013-10-19 03:27:00,42.4,26.5,29.90,West,270,4.8,4.8,53,0.00,,SCT120,0.00,VWS V14.01,2013-10-19 08:27:00,
2013-10-19 03:30:00,42.4,26.5,29.90,West,270,0.0,0.0,53,0.00,,SCT120,0.00,VWS V14.01,2013-10-19 08:30:00,
2013-10-19 03:31:00,42.4,26.5,29.90,West,270,0.0,0.0,53,0.00,,SCT120,0.00,VWS V14.01,2013-10-19 08:31:00,
2013-10-19 03:32:00,42.4,26.5,29.90,West,270,0.0,0.0,53,0.00,,SCT120,0.00,VWS V14.01,2013-10-19 08:32:00,
2013-10-19 03:35:00,42.4,26.5,29.90,West,270,0.0,3.0,53,0.00,,SCT120,0.00,VWS V14.01,2013-10-19 08:35:00,
2013-10-19 03:38:00,42.2,26.3,29.90,West,270,2.6,2.6,53,0.00,,SCT120,0.00,VWS V14.01,2013-10-19 08:38:00,
2013-10-19 03:42:00,42.2,26.3,29.90,West,270,0.0,0.0,53,0.00,,CLR,0.00,VWS V14.01,2013-10-19 08:42:00,
2013-10-19 03:43:00,42.2,26.8,29.90,West,270,0.0,0.0,54,0.00,,CLR,0.00,VWS V14.01,2013-10-19 08:43:00,
2013-10-19 03:44:00,42.2,26.8,29.90,West,270,0.0,0.0,54,0.00,,CLR,0.00,VWS V14.01,2013-10-19 08:44:00,
2013-10-19 03:48:00,42.2,26.8,29.90,West,270,0.0,0.0,54,0.00,,CLR,0.00,VWS V14.01,2013-10-19 08:48:00,
2013-10-19 03:49:00,42.0,26.6,29.90,West,270,0.0,0.0,54,0.00,,CLR,0.00,VWS V14.01,2013-10-19 08:49:00,
2013-10-19 03:50:00,41.9,26.5,29.90,West,270,0.0,0.0,54,0.00,,CLR,0.00,VWS V14.01,2013-10-19 08:50:00,
2013-10-19 03:53:00,41.9,26.5,29.90,West,270,0.0,0.0,54,0.00,,CLR,0.00,VWS V14.01,2013-10-19 08:53:00,
2013-10-19 03:56:00,41.9,26.5,29.89,West,270,0.0,4.8,54,0.00,,CLR,0.00,VWS V14.01,2013-10-19 08:56:00,
2013-10-19 03:58:00,41.9,26.9,29.89,West,270,5.8,5.8,55,0.00,,CLR,0.00,VWS V14.01,2013-10-19 08:58:00,
2013-10-19 03:59:00,41.9,26.5,29.89,WSW,248,4.4,5.8,54,0.00,,CLR,0.00,VWS V14.01,2013-10-19 08:59:00,
2013-10-19 04:01:00,41.7,26.3,29.90,West,270,2.2,2.2,54,0.00,,CLR,0.00,VWS V14.01,2013-10-19 09:01:00,
2013-10-19 04:02:00,41.7,26.3,29.89,West,270,0.0,2.2,54,0.00,,CLR,0.00,VWS V14.01,2013-10-19 09:02:00,
2013-10-19 04:03:00,41.7,26.7,29.89,West,270,0.0,0.0,55,0.00,,CLR,0.00,VWS V14.01,2013-10-19 09:03:00,
2013-10-19 04:08:00,41.5,26.5,29.89,West,270,0.0,0.0,55,0.00,,CLR,0.00,VWS V14.01,2013-10-19 09:08:00,
2013-10-19 04:10:00,41.5,26.5,29.89,West,270,0.0,0.0,55,0.00,,CLR,0.00,VWS V14.01,2013-10-19 09:10:00,
2013-10-19 04:12:00,41.5,26.5,29.89,West,270,0.0,0.0,55,0.00,,CLR,0.00,VWS V14.01,2013-10-19 09:12:00,
2013-10-19 04:13:00,41.3,26.4,29.89,West,270,0.0,0.0,55,0.00,,CLR,0.00,VWS V14.01,2013-10-19 09:13:00,
2013-10-19 04:14:00,41.3,26.8,29.89,West,270,0.0,0.0,56,0.00,,CLR,0.00,VWS V14.01,2013-10-19 09:14:00,
2013-10-19 04:18:00,41.1,26.6,29.89,West,270,0.0,0.0,56,0.00,,CLR,0.00,VWS V14.01,2013-10-19 09:18:00,
2013-10-19 04:19:00,41.1,26.6,29.89,West,270,0.0,0.0,56,0.00,,CLR,0.00,VWS V14.01,2013-10-19 09:19:00,
2013-10-19 04:20:00,40.8,26.3,29.89,West,270,0.0,0.0,56,0.00,,CLR,0.00,VWS V14.01,2013-10-19 09:20:00,
2013-10-19 04:22:00,40.8,26.3,29.89,West,270,0.0,0.0,56,0.00,,CLR,0.00,VWS V14.01,2013-10-19 09:22:00,
2013-10-19 04:23:00,40.8,26.3,29.89,West,270,4.4,4.4,56,0.00,,CLR,0.00,VWS V14.01,2013-10-19 09:23:00,
2013-10-19 04:25:00,40.8,26.8,29.90,West,270,0.0,0.0,57,0.00,,CLR,0.00,VWS V14.01,2013-10-19 09:25:00,
2013-10-19 04:26:00,40.6,26.6,29.90,West,270,0.0,0.0,57,0.00,,CLR,0.00,VWS V14.01,2013-10-19 09:26:00,
2013-10-19 04:27:00,40.6,26.6,29.89,West,270,0.0,0.0,57,0.00,,CLR,0.00,VWS V14.01,2013-10-19 09:27:00,
2013-10-19 04:30:00,40.4,26.4,29.89,West,270,0.0,0.0,57,0.00,,CLR,0.00,VWS V14.01,2013-10-19 09:30:00,
2013-10-19 04:32:00,40.4,26.4,29.89,West,270,0.0,0.0,57,0.00,,CLR,0.00,VWS V14.01,2013-10-19 09:32:00,
2013-10-19 04:34:00,40.2,26.2,29.90,West,270,0.0,0.0,57,0.00,,CLR,0.00,VWS V14.01,2013-10-19 09:34:00,
2013-10-19 04:35:00,40.2,26.6,29.90,West,270,0.0,0.0,58,0.00,,CLR,0.00,VWS V14.01,2013-10-19 09:35:00,
2013-10-19 04:39:00,40.1,26.5,29.89,West,270,0.0,0.0,58,0.00,,CLR,0.00,VWS V14.01,2013-10-19 09:39:00,
2013-10-19 04:40:00,40.1,26.5,29.90,West,270,0.0,0.0,58,0.00,,CLR,0.00,VWS V14.01,2013-10-19 09:40:00,
2013-10-19 04:45:00,40.1,26.5,29.89,West,270,0.0,0.0,58,0.00,,CLR,0.00,VWS V14.01,2013-10-19 09:45:00,
2013-10-19 04:46:00,40.1,26.9,29.90,WSW,248,5.2,5.2,59,0.00,,CLR,0.00,VWS V14.01,2013-10-19 09:46:00,
2013-10-19 04:47:00,40.1,26.9,29.89,West,270,0.0,5.2,59,0.00,,CLR,0.00,VWS V14.01,2013-10-19 09:47:00,
2013-10-19 04:50:00,39.9,26.8,29.89,West,270,4.8,4.8,59,0.00,,CLR,0.00,VWS V14.01,2013-10-19 09:50:00,
2013-10-19 04:51:00,39.9,26.8,29.90,West,270,0.0,4.8,59,0.00,,CLR,0.00,VWS V14.01,2013-10-19 09:51:00,
2013-10-19 04:52:00,39.9,26.8,29.90,West,270,3.0,3.0,59,0.00,,CLR,0.00,VWS V14.01,2013-10-19 09:52:00,
2013-10-19 04:53:00,40.1,26.9,29.90,North,0,0.0,3.0,59,0.00,,CLR,0.00,VWS V14.01,2013-10-19 09:53:00,
2013-10-19 04:55:00,39.9,26.8,29.89,West,270,0.0,1.6,59,0.00,,CLR,0.00,VWS V14.01,2013-10-19 09:55:00,
2013-10-19 04:56:00,39.9,26.8,29.89,West,270,0.0,1.6,59,0.00,,CLR,0.00,VWS V14.01,2013-10-19 09:56:00,
2013-10-19 04:57:00,39.9,26.8,29.89,West,270,0.0,0.0,59,0.00,,CLR,0.00,VWS V14.01,2013-10-19 09:57:00,
2013-10-19 05:00:00,39.9,26.8,29.89,West,270,0.0,0.0,59,0.00,,CLR,0.00,VWS V14.01,2013-10-19 10:00:00,
2013-10-19 05:02:00,39.9,26.8,29.90,West,270,0.0,0.0,59,0.00,,CLR,0.00,VWS V14.01,2013-10-19 10:02:00,
2013-10-19 05:04:00,39.9,26.8,29.89,West,270,3.4,3.4,59,0.00,,CLR,0.00,VWS V14.01,2013-10-19 10:04:00,
2013-10-19 05:06:00,40.1,26.9,29.89,West,270,0.0,5.2,59,0.00,,CLR,0.00,VWS V14.01,2013-10-19 10:06:00,
2013-10-19 05:07:00,40.1,26.9,29.89,West,270,0.0,0.0,59,0.00,,CLR,0.00,VWS V14.01,2013-10-19 10:07:00,
2013-10-19 05:08:00,40.1,26.9,29.89,West,270,0.0,2.6,59,0.00,,CLR,0.00,VWS V14.01,2013-10-19 10:08:00,
2013-10-19 05:10:00,40.1,26.9,29.89,West,270,0.0,0.0,59,0.00,,CLR,0.00,VWS V14.01,2013-10-19 10:10:00,
2013-10-19 05:14:00,40.1,26.9,29.89,West,270,0.0,0.0,59,0.00,,CLR,0.00,VWS V14.01,2013-10-19 10:14:00,
2013-10-19 05:15:00,40.1,26.9,29.90,West,270,0.0,0.0,59,0.00,,CLR,0.00,VWS V14.01,2013-10-19 10:15:00,
2013-10-19 05:16:00,40.1,26.9,29.90,West,270,0.0,0.0,59,0.00,,CLR,0.00,VWS V14.01,2013-10-19 10:16:00,
2013-10-19 05:19:00,39.9,26.8,29.89,WSW,248,0.0,0.0,59,0.00,,CLR,0.00,VWS V14.01,2013-10-19 10:19:00,
2013-10-19 05:20:00,39.9,26.8,29.89,WSW,248,0.0,0.0,59,0.00,,CLR,0.00,VWS V14.01,2013-10-19 10:20:00,
2013-10-19 05:22:00,39.9,26.8,29.89,WSW,248,0.0,0.0,59,0.00,,CLR,0.00,VWS V14.01,2013-10-19 10:22:00,
2013-10-19 05:24:00,39.9,26.8,29.90,WSW,248,0.0,0.0,59,0.00,,CLR,0.00,VWS V14.01,2013-10-19 10:24:00,
2013-10-19 05:27:00,39.9,26.8,29.89,SSE,158,0.0,0.0,59,0.00,,CLR,0.00,VWS V14.01,2013-10-19 10:27:00,
2013-10-19 05:28:00,39.9,26.8,29.90,West,270,0.0,0.0,59,0.00,,CLR,0.00,VWS V14.01,2013-10-19 10:28:00,
2013-10-19 05:29:00,39.9,26.8,29.90,West,270,0.0,0.0,59,0.00,,CLR,0.00,VWS V14.01,2013-10-19 10:29:00,
2013-10-19 05:30:00,39.9,26.8,29.89,West,270,0.0,0.0,59,0.00,,CLR,0.00,VWS V14.01,2013-10-19 10:30:00,
2013-10-19 05:32:00,39.9,26.8,29.90,West,270,2.6,2.6,59,0.00,,CLR,0.00,VWS V14.01,2013-10-19 10:32:00,
2013-10-19 05:34:00,39.7,26.6,29.90,West,270,0.0,0.0,59,0.00,,CLR,0.00,VWS V14.01,2013-10-19 10:34:00,
2013-10-19 05:35:00,39.9,26.3,29.89,West,270,0.0,0.0,58,0.00,,CLR,0.00,VWS V14.01,2013-10-19 10:35:00,
2013-10-19 05:37:00,39.9,26.8,29.90,West,270,0.0,0.0,59,0.00,,CLR,0.00,VWS V14.01,2013-10-19 10:37:00,
2013-10-19 05:38:00,39.9,26.3,29.90,West,270,0.0,0.0,58,0.00,,CLR,0.00,VWS V14.01,2013-10-19 10:38:00,
2013-10-19 05:40:00,39.9,26.8,29.90,West,270,0.0,0.0,59,0.00,,CLR,0.00,VWS V14.01,2013-10-19 10:40:00,
2013-10-19 05:43:00,39.7,26.1,29.89,WSW,248,0.0,0.0,58,0.00,,CLR,0.00,VWS V14.01,2013-10-19 10:43:00,
2013-10-19 05:44:00,39.9,26.8,29.89,WSW,248,0.0,0.0,59,0.00,,CLR,0.00,VWS V14.01,2013-10-19 10:44:00,
2013-10-19 05:46:00,39.7,26.6,29.89,WSW,248,0.0,0.0,59,0.00,,CLR,0.00,VWS V14.01,2013-10-19 10:46:00,
2013-10-19 05:48:00,39.7,26.6,29.89,WSW,248,0.0,0.0,59,0.00,,CLR,0.00,VWS V14.01,2013-10-19 10:48:00,
2013-10-19 05:50:00,39.7,26.1,29.89,WSW,248,0.0,0.0,58,0.00,,CLR,0.00,VWS V14.01,2013-10-19 10:50:00,
2013-10-19 05:53:00,39.7,26.6,29.89,WSW,248,0.0,0.0,59,0.00,,CLR,0.00,VWS V14.01,2013-10-19 10:53:00,
2013-10-19 05:56:00,39.5,26.4,29.89,West,270,0.0,0.0,59,0.00,,CLR,0.00,VWS V14.01,2013-10-19 10:56:00,
2013-10-19 05:58:00,39.5,26.4,29.89,West,270,0.0,0.0,59,0.00,,CLR,0.00,VWS V14.01,2013-10-19 10:58:00,
2013-10-19 06:02:00,39.5,26.4,29.89,West,270,0.0,0.0,59,0.00,,CLR,0.00,VWS V14.01,2013-10-19 11:02:00,
2013-10-19 06:04:00,39.3,26.2,29.89,West,270,0.0,0.0,59,0.00,,CLR,0.00,VWS V14.01,2013-10-19 11:04:00,
2013-10-19 06:06:00,39.5,26.4,29.89,West,270,0.0,0.0,59,0.00,,CLR,0.00,VWS V14.01,2013-10-19 11:06:00,
2013-10-19 06:09:00,39.5,26.4,29.89,West,270,0.0,0.0,59,0.00,,CLR,0.00,VWS V14.01,2013-10-19 11:09:00,
2013-10-19 06:11:00,39.5,26.4,29.89,West,270,0.0,0.0,59,0.00,,CLR,0.00,VWS V14.01,2013-10-19 11:11:00,
2013-10-19 06:13:00,39.3,26.2,29.89,West,270,0.0,0.0,59,0.00,,CLR,0.00,VWS V14.01,2013-10-19 11:13:00,
2013-10-19 06:14:00,39.3,26.2,29.89,West,270,0.0,0.0,59,0.00,,CLR,0.00,VWS V14.01,2013-10-19 11:14:00,
2013-10-19 06:16:00,39.3,26.2,29.89,West,270,0.0,0.0,59,0.00,,CLR,0.00,VWS V14.01,2013-10-19 11:16:00,
2013-10-19 06:17:00,39.3,26.2,29.89,WSW,248,0.0,0.0,59,0.00,,CLR,0.00,VWS V14.01,2013-10-19 11:17:00,
2013-10-19 06:19:00,39.3,26.2,29.89,WSW,248,0.0,0.0,59,0.00,,CLR,0.00,VWS V14.01,2013-10-19 11:19:00,
2013-10-19 06:20:00,39.3,26.2,29.89,WSW,248,0.0,0.0,59,0.00,,CLR,0.00,VWS V14.01,2013-10-19 11:20:00,
2013-10-19 06:22:00,39.3,26.2,29.89,WSW,248,0.0,0.0,59,0.00,,CLR,0.00,VWS V14.01,2013-10-19 11:22:00,
2013-10-19 06:23:00,39.3,26.2,29.89,WSW,248,0.0,0.0,59,0.00,,CLR,0.00,VWS V14.01,2013-10-19 11:23:00,
2013-10-19 06:24:00,39.3,26.2,29.89,WSW,248,0.0,0.0,59,0.00,,CLR,0.00,VWS V14.01,2013-10-19 11:24:00,
2013-10-19 06:25:00,39.3,26.2,29.89,WSW,248,0.0,0.0,59,0.00,,CLR,0.00,VWS V14.01,2013-10-19 11:25:00,
2013-10-19 06:28:00,39.5,26.8,29.89,WSW,248,0.0,0.0,60,0.00,,CLR,0.00,VWS V14.01,2013-10-19 11:28:00,
2013-10-19 06:31:00,39.5,26.8,29.89,SW,225,0.0,0.0,60,0.00,,CLR,0.00,VWS V14.01,2013-10-19 11:31:00,
2013-10-19 06:33:00,39.5,26.8,29.89,SW,225,0.0,0.0,60,0.00,,CLR,0.00,VWS V14.01,2013-10-19 11:33:00,
2013-10-19 06:34:00,39.5,26.8,29.89,SW,225,0.0,0.0,60,0.00,,CLR,0.00,VWS V14.01,2013-10-19 11:34:00,
2013-10-19 06:36:00,39.5,26.8,29.89,SW,225,0.0,0.0,60,0.00,,CLR,0.00,VWS V14.01,2013-10-19 11:36:00,
2013-10-19 06:37:00,39.3,26.6,29.89,SW,225,0.0,0.0,60,0.00,,CLR,0.00,VWS V14.01,2013-10-19 11:37:00,
2013-10-19 06:38:00,39.5,26.8,29.89,WSW,248,0.0,0.0,60,0.00,,CLR,0.00,VWS V14.01,2013-10-19 11:38:00,
2013-10-19 06:39:00,39.5,26.8,29.89,South,180,0.0,0.0,60,0.00,,CLR,0.00,VWS V14.01,2013-10-19 11:39:00,
2013-10-19 06:40:00,39.3,26.6,29.89,South,180,0.0,0.0,60,0.00,,CLR,0.00,VWS V14.01,2013-10-19 11:40:00,
2013-10-19 06:41:00,39.3,26.6,29.89,South,180,0.0,0.0,60,0.00,,CLR,0.00,VWS V14.01,2013-10-19 11:41:00,
2013-10-19 06:42:00,39.3,26.6,29.89,South,180,0.0,0.0,60,0.00,,CLR,0.00,VWS V14.01,2013-10-19 11:42:00,
2013-10-19 06:44:00,39.3,26.6,29.89,South,180,0.0,0.0,60,0.00,,CLR,0.00,VWS V14.01,2013-10-19 11:44:00,
2013-10-19 06:45:00,39.3,26.6,29.89,South,180,0.0,0.0,60,0.00,,CLR,0.00,VWS V14.01,2013-10-19 11:45:00,
2013-10-19 06:46:00,39.3,26.6,29.89,South,180,0.0,0.0,60,0.00,,CLR,0.00,VWS V14.01,2013-10-19 11:46:00,
2013-10-19 06:49:00,39.3,26.6,29.89,South,180,0.0,0.0,60,0.00,,CLR,0.00,VWS V14.01,2013-10-19 11:49:00,
2013-10-19 06:50:00,39.3,26.6,29.89,South,180,0.0,0.0,60,0.00,,CLR,0.00,VWS V14.01,2013-10-19 11:50:00,
2013-10-19 06:51:00,39.3,26.6,29.89,South,180,0.0,0.0,60,0.00,,CLR,0.00,VWS V14.01,2013-10-19 11:51:00,
2013-10-19 06:53:00,39.2,26.9,29.89,South,180,0.0,0.0,61,0.00,,CLR,0.00,VWS V14.01,2013-10-19 11:53:00,
2013-10-19 06:55:00,39.2,26.9,29.89,South,180,0.0,0.0,61,0.00,,CLR,0.00,VWS V14.01,2013-10-19 11:55:00,
2013-10-19 06:56:00,39.2,26.9,29.89,South,180,0.0,0.0,61,0.00,,CLR,0.00,VWS V14.01,2013-10-19 11:56:00,
2013-10-19 06:57:00,39.3,27.0,29.89,South,180,0.0,0.0,61,0.00,,CLR,0.00,VWS V14.01,2013-10-19 11:57:00,
2013-10-19 06:59:00,39.3,27.0,29.89,South,180,0.0,0.0,61,0.00,,CLR,0.00,VWS V14.01,2013-10-19 11:59:00,
2013-10-19 07:00:00,39.3,27.0,29.89,South,180,0.0,0.0,61,0.00,,CLR,0.00,VWS V14.01,2013-10-19 12:00:00,
2013-10-19 07:01:00,39.3,27.0,29.89,South,180,0.0,0.0,61,0.00,,CLR,0.00,VWS V14.01,2013-10-19 12:01:00,
2013-10-19 07:02:00,39.3,27.0,29.89,SSE,158,0.0,0.0,61,0.00,,CLR,0.00,VWS V14.01,2013-10-19 12:02:00,
2013-10-19 07:05:00,39.3,27.0,29.89,SSE,158,0.0,0.0,61,0.00,,CLR,0.00,VWS V14.01,2013-10-19 12:05:00,
2013-10-19 07:06:00,39.3,27.0,29.89,SSE,158,0.0,0.0,61,0.00,,CLR,0.00,VWS V14.01,2013-10-19 12:06:00,
2013-10-19 07:07:00,39.2,26.9,29.89,SSE,158,0.0,0.0,61,0.00,,CLR,0.00,VWS V14.01,2013-10-19 12:07:00,
2013-10-19 07:10:00,39.3,27.4,29.89,South,180,0.0,0.0,62,0.00,,CLR,0.00,VWS V14.01,2013-10-19 12:10:00,
2013-10-19 07:11:00,39.3,27.4,29.89,South,180,0.0,0.0,62,0.00,,CLR,0.00,VWS V14.01,2013-10-19 12:11:00,
2013-10-19 07:12:00,39.3,27.4,29.89,South,180,0.0,0.0,62,0.00,,CLR,0.00,VWS V14.01,2013-10-19 12:12:00,
2013-10-19 07:13:00,39.3,27.4,29.89,South,180,0.0,0.0,62,0.00,,CLR,0.00,VWS V14.01,2013-10-19 12:13:00,
2013-10-19 07:17:00,39.3,27.4,29.89,South,180,0.0,0.0,62,0.00,,CLR,0.00,VWS V14.01,2013-10-19 12:17:00,
2013-10-19 07:18:00,39.3,27.4,29.89,South,180,0.0,0.0,62,0.00,,CLR,0.00,VWS V14.01,2013-10-19 12:18:00,
2013-10-19 07:20:00,39.3,27.4,29.88,SSW,202,0.0,0.0,62,0.00,,CLR,0.00,VWS V14.01,2013-10-19 12:20:00,
2013-10-19 07:22:00,39.3,27.4,29.88,West,270,0.0,0.0,62,0.00,,CLR,0.00,VWS V14.01,2013-10-19 12:22:00,
2013-10-19 07:23:00,39.3,27.4,29.89,West,270,0.0,0.0,62,0.00,,CLR,0.00,VWS V14.01,2013-10-19 12:23:00,
2013-10-19 07:24:00,39.3,27.4,29.88,West,270,0.0,0.0,62,0.00,,CLR,0.00,VWS V14.01,2013-10-19 12:24:00,
2013-10-19 07:25:00,39.5,27.6,29.88,West,270,0.0,0.0,62,0.00,,CLR,0.00,VWS V14.01,2013-10-19 12:25:00,
2013-10-19 07:26:00,39.3,27.4,29.89,West,270,0.0,0.0,62,0.00,,CLR,0.00,VWS V14.01,2013-10-19 12:26:00,
2013-10-19 07:28:00,39.3,27.4,29.88,West,270,4.4,4.4,62,0.00,,CLR,0.00,VWS V14.01,2013-10-19 12:28:00,
2013-10-19 07:29:00,39.5,27.6,29.89,West,270,0.0,4.4,62,0.00,,CLR,0.00,VWS V14.01,2013-10-19 12:29:00,
2013-10-19 07:30:00,39.5,27.2,29.89,West,270,0.0,0.0,61,0.00,,CLR,0.00,VWS V14.01,2013-10-19 12:30:00,
2013-10-19 07:32:00,39.5,27.2,29.89,West,270,0.0,0.0,61,0.00,,CLR,0.00,VWS V14.01,2013-10-19 12:32:00,
2013-10-19 07:33:00,39.5,27.2,29.89,West,270,0.0,0.0,61,0.00,,CLR,0.00,VWS V14.01,2013-10-19 12:33:00,
2013-10-19 07:35:00,39.5,27.2,29.89,West,270,0.0,0.0,61,0.00,,CLR,0.00,VWS V14.01,2013-10-19 12:35:00,
2013-10-19 07:38:00,39.5,27.2,29.89,West,270,0.0,0.0,61,0.00,,CLR,0.00,VWS V14.01,2013-10-19 12:38:00,
2013-10-19 07:40:00,39.5,27.2,29.89,SSE,158,0.0,0.0,61,0.00,,CLR,0.00,VWS V14.01,2013-10-19 12:40:00,
2013-10-19 07:41:00,39.5,27.2,29.89,WNW,292,0.0,0.0,61,0.00,,CLR,0.00,VWS V14.01,2013-10-19 12:41:00,
2013-10-19 07:42:00,39.5,27.2,29.89,WNW,292,0.0,0.0,61,0.00,,CLR,0.00,VWS V14.01,2013-10-19 12:42:00,
2013-10-19 07:45:00,39.5,27.2,29.89,West,270,0.0,1.6,61,0.00,,CLR,0.00,VWS V14.01,2013-10-19 12:45:00,
2013-10-19 07:46:00,39.5,27.2,29.89,West,270,0.0,1.6,61,0.00,,CLR,0.00,VWS V14.01,2013-10-19 12:46:00,
2013-10-19 07:48:00,39.5,27.6,29.89,West,270,2.2,3.0,62,0.00,,CLR,0.00,VWS V14.01,2013-10-19 12:48:00,
2013-10-19 07:49:00,39.5,27.6,29.89,West,270,0.0,2.2,62,0.00,,CLR,0.00,VWS V14.01,2013-10-19 12:49:00,
2013-10-19 07:53:00,39.5,27.6,29.89,West,270,0.0,0.0,62,0.00,,CLR,0.00,VWS V14.01,2013-10-19 12:53:00,
2013-10-19 07:54:00,39.5,27.6,29.89,West,270,0.0,0.0,62,0.00,,CLR,0.00,VWS V14.01,2013-10-19 12:54:00,
2013-10-19 07:55:00,39.5,27.6,29.89,SE,135,0.0,0.0,62,0.00,,CLR,0.00,VWS V14.01,2013-10-19 12:55:00,
2013-10-19 07:57:00,39.5,27.6,29.89,WSW,248,0.0,7.0,62,0.00,,CLR,0.00,VWS V14.01,2013-10-19 12:57:00,
2013-10-19 07:59:00,39.5,27.6,29.89,SE,135,0.0,0.0,62,0.00,,CLR,0.00,VWS V14.01,2013-10-19 12:59:00,
2013-10-19 08:02:00,39.7,27.8,29.89,West,270,0.0,0.0,62,0.00,,OVC085,0.00,VWS V14.01,2013-10-19 13:02:00,
2013-10-19 08:04:00,39.5,27.6,29.89,West,270,0.0,0.0,62,0.00,,OVC085,0.00,VWS V14.01,2013-10-19 13:04:00,
2013-10-19 08:06:00,39.7,27.8,29.89,West,270,0.0,0.0,62,0.00,,OVC085,0.00,VWS V14.01,2013-10-19 13:06:00,
2013-10-19 08:07:00,39.7,27.8,29.89,West,270,0.0,0.0,62,0.00,,OVC085,0.00,VWS V14.01,2013-10-19 13:07:00,
2013-10-19 08:11:00,39.9,28.3,29.89,West,270,0.0,0.0,63,0.00,,OVC085,0.00,VWS V14.01,2013-10-19 13:11:00,
2013-10-19 08:13:00,39.9,28.3,29.89,West,270,0.0,0.0,63,0.00,,OVC085,0.00,VWS V14.01,2013-10-19 13:13:00,
2013-10-19 08:14:00,39.9,28.3,29.89,West,270,0.0,0.0,63,0.00,,OVC085,0.00,VWS V14.01,2013-10-19 13:14:00,
2013-10-19 08:16:00,39.9,28.3,29.89,SW,225,0.0,0.0,63,0.00,,OVC085,0.00,VWS V14.01,2013-10-19 13:16:00,
2013-10-19 08:19:00,40.1,28.5,29.89,SW,225,0.0,0.0,63,0.00,,OVC085,0.00,VWS V14.01,2013-10-19 13:19:00,
2013-10-19 08:22:00,40.1,28.5,29.89,SW,225,0.0,0.0,63,0.00,,OVC085,0.00,VWS V14.01,2013-10-19 13:22:00,
2013-10-19 08:23:00,40.1,28.5,29.89,SW,225,0.0,0.0,63,0.00,,OVC085,0.00,VWS V14.01,2013-10-19 13:23:00,
2013-10-19 08:24:00,40.1,28.5,29.89,SW,225,0.0,0.0,63,0.00,,OVC085,0.00,VWS V14.01,2013-10-19 13:24:00,
2013-10-19 08:26:00,39.9,28.3,29.89,SW,225,0.0,0.0,63,0.00,,OVC085,0.00,VWS V14.01,2013-10-19 13:26:00,
2013-10-19 08:28:00,40.1,28.5,29.89,West,270,0.0,0.0,63,0.00,,OVC085,0.00,VWS V14.01,2013-10-19 13:28:00,
2013-10-19 08:30:00,40.1,28.5,29.89,West,270,0.0,0.0,63,0.00,,OVC085,0.00,VWS V14.01,2013-10-19 13:30:00,
2013-10-19 08:33:00,40.1,28.5,29.89,West,270,0.0,0.0,63,0.00,,OVC085,0.00,VWS V14.01,2013-10-19 13:33:00,
2013-10-19 08:34:00,40.1,28.5,29.89,SW,225,0.0,0.0,63,0.00,,OVC085,0.00,VWS V14.01,2013-10-19 13:34:00,
2013-10-19 08:37:00,40.2,28.6,29.89,SW,225,0.0,0.0,63,0.00,,OVC085,0.00,VWS V14.01,2013-10-19 13:37:00,
2013-10-19 08:41:00,40.2,28.6,29.89,WSW,248,0.0,0.0,63,0.00,,OVC100,0.00,VWS V14.01,2013-10-19 13:41:00,
2013-10-19 08:42:00,40.4,28.8,29.89,North,0,0.0,0.0,63,0.00,,OVC100,0.00,VWS V14.01,2013-10-19 13:42:00,
2013-10-19 08:44:00,40.4,28.8,29.89,SE,135,0.0,0.0,63,0.00,,OVC100,0.00,VWS V14.01,2013-10-19 13:44:00,
2013-10-19 08:46:00,40.4,28.8,29.89,SSE,158,0.0,0.0,63,0.00,,OVC100,0.00,VWS V14.01,2013-10-19 13:46:00,
2013-10-19 08:48:00,40.6,29.0,29.89,SSE,158,0.0,0.0,63,0.00,,OVC100,0.00,VWS V14.01,2013-10-19 13:48:00,
2013-10-19 08:50:00,40.4,28.8,29.89,SW,225,0.0,0.0,63,0.00,,OVC100,0.00,VWS V14.01,2013-10-19 13:50:00,
2013-10-19 08:54:00,40.6,29.0,29.89,SW,225,0.0,0.0,63,0.00,,OVC100,0.00,VWS V14.01,2013-10-19 13:54:00,
2013-10-19 08:56:00,40.6,29.0,29.89,SW,225,0.0,0.0,63,0.00,,OVC100,0.00,VWS V14.01,2013-10-19 13:56:00,
2013-10-19 08:59:00,40.4,28.8,29.89,SSW,202,0.0,0.0,63,0.00,,OVC100,0.00,VWS V14.01,2013-10-19 13:59:00,
2013-10-19 09:00:00,40.6,29.4,29.89,West,270,0.0,0.0,64,0.00,,OVC100,0.00,VWS V14.01,2013-10-19 14:00:00,
2013-10-19 09:01:00,40.6,29.4,29.89,West,270,0.0,0.0,64,0.00,,OVC100,0.00,VWS V14.01,2013-10-19 14:01:00,
2013-10-19 09:04:00,40.6,29.4,29.89,South,180,0.0,0.0,64,0.00,,OVC100,0.00,VWS V14.01,2013-10-19 14:04:00,
2013-10-19 09:06:00,40.6,29.4,29.89,SW,225,0.0,0.0,64,0.00,,OVC100,0.00,VWS V14.01,2013-10-19 14:06:00,
2013-10-19 09:11:00,40.6,29.4,29.90,SW,225,0.0,0.0,64,0.00,,OVC100,0.00,VWS V14.01,2013-10-19 14:11:00,
2013-10-19 09:12:00,40.6,29.4,29.90,SW,225,0.0,0.0,64,0.00,,OVC100,0.00,VWS V14.01,2013-10-19 14:12:00,
2013-10-19 09:13:00,40.6,29.4,29.90,SW,225,2.6,2.6,64,0.00,,OVC100,0.00,VWS V14.01,2013-10-19 14:13:00,
2013-10-19 09:15:00,40.6,29.4,29.89,West,270,0.0,0.0,64,0.00,,OVC100,0.00,VWS V14.01,2013-10-19 14:15:00,
2013-10-19 09:16:00,40.6,29.4,29.90,South,180,2.2,2.2,64,0.00,,OVC100,0.00,VWS V14.01,2013-10-19 14:16:00,
2013-10-19 09:17:00,40.6,29.4,29.90,South,180,2.2,2.2,64,0.00,,OVC100,0.00,VWS V14.01,2013-10-19 14:17:00,
2013-10-19 09:18:00,40.6,29.4,29.90,SSW,202,0.0,2.2,64,0.00,,OVC100,0.00,VWS V14.01,2013-10-19 14:18:00,
2013-10-19 09:20:00,40.6,29.8,29.90,SSW,202,0.0,0.0,65,0.00,,OVC100,0.00,VWS V14.01,2013-10-19 14:20:00,
2013-10-19 09:22:00,41.1,30.2,29.90,West,270,0.0,0.0,65,0.00,,OVC100,0.00,VWS V14.01,2013-10-19 14:22:00,
2013-10-19 09:23:00,41.1,30.2,29.90,West,270,0.0,0.0,65,0.00,,OVC100,0.00,VWS V14.01,2013-10-19 14:23:00,
2013-10-19 09:26:00,41.1,30.2,29.90,West,270,0.0,0.0,65,0.00,,OVC100,0.00,VWS V14.01,2013-10-19 14:26:00,
2013-10-19 09:28:00,41.3,30.4,29.90,West,270,0.0,4.0,65,0.00,,OVC100,0.00,VWS V14.01,2013-10-19 14:28:00,
2013-10-19 09:29:00,41.1,30.2,29.89,West,270,0.0,0.0,65,0.00,,OVC100,0.00,VWS V14.01,2013-10-19 14:29:00,
2013-10-19 09:30:00,41.1,30.2,29.89,West,270,0.0,0.0,65,0.00,,OVC100,0.00,VWS V14.01,2013-10-19 14:30:00,
2013-10-19 09:32:00,41.1,29.9,29.89,WSW,248,0.0,0.0,64,0.00,,OVC100,0.00,VWS V14.01,2013-10-19 14:32:00,
2013-10-19 09:33:00,41.3,30.1,29.90,WSW,248,0.0,0.0,64,0.00,,OVC100,0.00,VWS V14.01,2013-10-19 14:33:00,
2013-10-19 09:34:00,41.3,30.4,29.90,West,270,4.8,4.8,65,0.00,,OVC100,0.00,VWS V14.01,2013-10-19 14:34:00,
2013-10-19 09:35:00,41.3,30.1,29.89,West,270,0.0,0.0,64,0.00,,OVC100,0.00,VWS V14.01,2013-10-19 14:35:00,
2013-10-19 09:36:00,41.3,30.1,29.90,West,270,0.0,0.0,64,0.00,,OVC100,0.00,VWS V14.01,2013-10-19 14:36:00,
2013-10-19 09:38:00,41.9,30.6,29.89,SW,225,0.0,5.2,64,0.00,,OVC100,0.00,VWS V14.01,2013-10-19 14:38:00,
2013-10-19 09:39:00,41.9,30.6,29.89,SW,225,0.0,0.0,64,0.00,,OVC100,0.00,VWS V14.01,2013-10-19 14:39:00,
2013-10-19 09:40:00,42.0,30.7,29.89,West,270,2.6,2.6,64,0.00,,BKN100,0.00,VWS V14.01,2013-10-19 14:40:00,
2013-10-19 09:41:00,42.2,30.5,29.89,West,270,4.0,4.0,63,0.00,,BKN100,0.00,VWS V14.01,2013-10-19 14:41:00,
2013-10-19 09:43:00,42.0,30.3,29.89,West,270,0.0,0.0,63,0.00,,BKN100,0.00,VWS V14.01,2013-10-19 14:43:00,
2013-10-19 09:44:00,42.0,30.3,29.89,West,270,0.0,0.0,63,0.00,,BKN100,0.00,VWS V14.01,2013-10-19 14:44:00,
2013-10-19 09:45:00,42.4,30.7,29.89,West,270,0.0,0.0,63,0.00,,BKN100,0.00,VWS V14.01,2013-10-19 14:45:00,
2013-10-19 09:46:00,42.6,30.9,29.90,WSW,248,0.0,0.0,63,0.00,,BKN100,0.00,VWS V14.01,2013-10-19 14:46:00,
2013-10-19 09:48:00,42.9,31.2,29.90,WSW,248,0.0,4.0,63,0.00,,BKN100,0.00,VWS V14.01,2013-10-19 14:48:00,
2013-10-19 09:52:00,43.5,31.4,29.90,West,270,4.0,8.0,62,0.00,,BKN100,0.00,VWS V14.01,2013-10-19 14:52:00,
2013-10-19 09:54:00,43.3,31.2,29.89,West,270,0.0,4.0,62,0.00,,BKN100,0.00,VWS V14.01,2013-10-19 14:54:00,
2013-10-19 09:57:00,44.2,31.6,29.90,SW,225,0.0,0.0,61,0.00,,BKN100,0.00,VWS V14.01,2013-10-19 14:57:00,
2013-10-19 09:59:00,44.2,31.2,29.89,West,270,0.0,0.0,60,0.00,,BKN100,0.00,VWS V14.01,2013-10-19 14:59:00,
2013-10-19 10:00:00,44.0,31.0,29.89,West,270,0.0,0.0,60,0.00,,BKN100,0.00,VWS V14.01,2013-10-19 15:00:00,
2013-10-19 10:03:00,43.7,30.3,29.89,West,270,0.0,3.4,59,0.00,,BKN100,0.00,VWS V14.01,2013-10-19 15:03:00,
2013-10-19 10:05:00,43.8,30.4,29.89,SSW,202,0.0,0.0,59,0.00,,BKN100,0.00,VWS V14.01,2013-10-19 15:05:00,
2013-10-19 10:06:00,44.0,30.6,29.89,WSW,248,0.0,0.0,59,0.00,,BKN100,0.00,VWS V14.01,2013-10-19 15:06:00,
2013-10-19 10:07:00,44.0,30.6,29.89,WSW,248,0.0,0.0,59,0.00,,BKN100,0.00,VWS V14.01,2013-10-19 15:07:00,
2013-10-19 10:08:00,44.2,30.8,29.89,West,270,6.6,6.6,59,0.00,,BKN100,0.00,VWS V14.01,2013-10-19 15:08:00,
2013-10-19 10:09:00,44.4,31.0,29.90,West,270,4.8,6.6,59,0.00,,BKN100,0.00,VWS V14.01,2013-10-19 15:09:00,
2013-10-19 10:12:00,44.7,31.3,29.89,West,270,3.0,3.0,59,0.00,,BKN100,0.00,VWS V14.01,2013-10-19 15:12:00,
2013-10-19 10:13:00,44.6,31.2,29.89,West,270,0.0,3.0,59,0.00,,BKN100,0.00,VWS V14.01,2013-10-19 15:13:00,
2013-10-19 10:14:00,44.7,31.3,29.89,South,180,0.0,0.0,59,0.00,,BKN100,0.00,VWS V14.01,2013-10-19 15:14:00,
2013-10-19 10:15:00,44.9,31.5,29.89,SSE,158,0.0,0.0,59,0.00,,BKN100,0.00,VWS V14.01,2013-10-19 15:15:00,
2013-10-19 10:17:00,45.1,31.6,29.89,West,270,4.0,5.2,59,0.00,,BKN100,0.00,VWS V14.01,2013-10-19 15:17:00,
2013-10-19 10:20:00,45.1,31.2,29.89,SSE,158,4.4,4.4,58,0.00,,BKN100,0.00,VWS V14.01,2013-10-19 15:20:00,
2013-10-19 10:21:00,45.3,31.4,29.89,South,180,0.0,4.4,58,0.00,,BKN100,0.00,VWS V14.01,2013-10-19 15:21:00,
2013-10-19 10:22:00,45.5,31.6,29.89,West,270,0.0,4.4,58,0.00,,BKN100,0.00,VWS V14.01,2013-10-19 15:22:00,
2013-10-19 10:23:00,45.8,31.9,29.89,West,270,0.0,0.0,58,0.00,,BKN100,0.00,VWS V14.01,2013-10-19 15:23:00,
2013-10-19 10:25:00,46.0,32.1,29.89,West,270,0.0,8.4,58,0.00,,BKN100,0.00,VWS V14.01,2013-10-19 15:25:00,
2013-10-19 10:26:00,46.0,32.1,29.89,West,270,3.4,3.4,58,0.00,,BKN100,0.06,VWS V14.01,2013-10-19 15:26:00,
2013-10-19 10:27:00,46.0,31.6,29.89,West,270,4.0,4.0,57,0.00,,BKN100,0.00,VWS V14.01,2013-10-19 15:27:00,
2013-10-19 10:30:00,46.4,32.0,29.89,West,270,0.0,0.0,57,0.00,,BKN100,0.00,VWS V14.01,2013-10-19 15:30:00,
2013-10-19 10:31:00,46.5,32.1,29.88,West,270,0.0,0.0,57,0.00,,BKN100,0.00,VWS V14.01,2013-10-19 15:31:00,
2013-10-19 10:34:00,47.1,32.7,29.88,South,180,7.0,7.0,57,0.00,,BKN100,0.00,VWS V14.01,2013-10-19 15:34:00,
2013-10-19 10:35:00,47.3,32.4,29.88,South,180,0.0,7.0,56,0.00,,BKN100,0.00,VWS V14.01,2013-10-19 15:35:00,
2013-10-19 10:36:00,47.3,32.4,29.88,South,180,0.8,0.8,56,0.00,,BKN100,0.00,VWS V14.01,2013-10-19 15:36:00,
2013-10-19 10:40:00,47.4,32.1,29.88,West,270,0.0,3.0,55,0.00,,FEW100,0.00,VWS V14.01,2013-10-19 15:40:00,
2013-10-19 10:42:00,47.4,32.1,29.88,South,180,0.0,6.2,55,0.00,,FEW100,0.00,VWS V14.01,2013-10-19 15:42:00,
2013-10-19 10:43:00,47.6,32.2,29.88,South,180,0.0,0.0,55,0.00,,FEW100,0.00,VWS V14.01,2013-10-19 15:43:00,
2013-10-19 10:45:00,48.3,32.9,29.88,SSE,158,0.0,0.0,55,0.00,,FEW100,0.00,VWS V14.01,2013-10-19 15:45:00,
2013-10-19 10:46:00,48.3,32.9,29.88,South,180,0.0,0.0,55,0.00,,FEW100,0.00,VWS V14.01,2013-10-19 15:46:00,
2013-10-19 10:48:00,48.7,32.8,29.88,South,180,5.2,5.2,54,0.00,,FEW100,0.00,VWS V14.01,2013-10-19 15:48:00,
2013-10-19 10:52:00,49.2,32.8,29.88,SSE,158,0.0,1.6,53,0.00,,FEW100,0.00,VWS V14.01,2013-10-19 15:52:00,
2013-10-19 10:53:00,49.4,33.0,29.88,SSE,158,0.0,0.0,53,0.00,,FEW100,0.00,VWS V14.01,2013-10-19 15:53:00,
2013-10-19 10:54:00,49.4,32.5,29.88,SSE,158,8.4,8.4,52,0.00,,FEW100,0.00,VWS V14.01,2013-10-19 15:54:00,
2013-10-19 10:56:00,49.6,32.7,29.88,WSW,248,0.0,0.0,52,0.00,,FEW100,0.00,VWS V14.01,2013-10-19 15:56:00,
2013-10-19 10:58:00,49.6,32.7,29.88,WNW,292,0.0,0.0,52,0.00,,FEW100,0.00,VWS V14.01,2013-10-19 15:58:00,
2013-10-19 10:59:00,49.6,32.2,29.88,West,270,0.0,0.0,51,0.00,,FEW100,0.00,VWS V14.01,2013-10-19 15:59:00,
2013-10-19 11:00:00,49.6,32.2,29.87,South,180,0.0,0.0,51,0.00,,FEW100,0.00,VWS V14.01,2013-10-19 16:00:00,
2013-10-19 11:02:00,50.0,32.6,29.87,SSE,158,3.0,3.0,51,0.00,,FEW100,0.00,VWS V14.01,2013-10-19 16:02:00,
2013-10-19 11:04:00,50.0,32.6,29.87,SSW,202,7.0,7.0,51,0.00,,FEW100,0.00,VWS V14.01,2013-10-19 16:04:00,
2013-10-19 11:05:00,50.1,32.2,29.87,WSW,248,4.0,7.0,50,0.00,,FEW100,0.00,VWS V14.01,2013-10-19 16:05:00,
2013-10-19 11:06:00,50.1,32.2,29.87,West,270,0.0,0.0,50,0.00,,FEW100,0.00,VWS V14.01,2013-10-19 16:06:00,
2013-10-19 11:09:00,50.1,32.2,29.87,West,270,4.4,4.4,50,0.00,,FEW100,0.00,VWS V14.01,2013-10-19 16:09:00,
2013-10-19 11:10:00,50.0,32.1,29.87,WNW,292,5.2,5.2,50,0.00,,FEW100,0.00,VWS V14.01,2013-10-19 16:10:00,
2013-10-19 11:12:00,49.6,31.7,29.87,West,270,2.2,2.2,50,0.00,,FEW100,0.00,VWS V14.01,2013-10-19 16:12:00,
2013-10-19 11:13:00,49.8,31.9,29.87,West,270,2.2,2.2,50,0.00,,FEW100,0.00,VWS V14.01,2013-10-19 16:13:00,
2013-10-19 11:15:00,50.0,32.1,29.87,South,180,8.8,8.8,50,0.00,,FEW100,0.00,VWS V14.01,2013-10-19 16:15:00,
2013-10-19 11:18:00,50.3,32.4,29.87,South,180,9.8,9.8,50,0.00,,FEW100,0.00,VWS V14.01,2013-10-19 16:18:00,
2013-10-19 11:20:00,50.7,32.2,29.88,South,180,3.4,3.4,49,0.00,,FEW100,0.00,VWS V14.01,2013-10-19 16:20:00,
2013-10-19 11:21:00,50.7,32.2,29.87,SSE,158,0.0,3.4,49,0.00,,FEW100,0.00,VWS V14.01,2013-10-19 16:21:00,
2013-10-19 11:23:00,50.9,31.9,29.87,West,270,5.2,5.2,48,0.00,,FEW100,0.00,VWS V14.01,2013-10-19 16:23:00,
2013-10-19 11:26:00,50.7,31.2,29.87,WSW,248,6.2,6.2,47,0.00,,FEW100,0.00,VWS V14.01,2013-10-19 16:26:00,
2013-10-19 11:28:00,50.7,31.2,29.87,WSW,248,1.6,7.0,47,0.00,,FEW100,0.00,VWS V14.01,2013-10-19 16:28:00,
2013-10-19 11:31:00,50.3,30.3,29.87,West,270,3.0,3.0,46,0.00,,FEW100,0.00,VWS V14.01,2013-10-19 16:31:00,
2013-10-19 11:32:00,50.3,30.3,29.87,WNW,292,0.0,3.0,46,0.00,,FEW100,0.00,VWS V14.01,2013-10-19 16:32:00,
2013-10-19 11:33:00,50.5,30.5,29.87,South,180,0.0,0.0,46,0.00,,FEW100,0.00,VWS V14.01,2013-10-19 16:33:00,
2013-10-19 11:34:00,50.5,30.5,29.87,SW,225,5.8,5.8,46,0.00,,FEW100,0.00,VWS V14.01,2013-10-19 16:34:00,
2013-10-19 11:36:00,51.0,31.0,29.86,West,270,0.0,0.0,46,0.00,,FEW100,0.00,VWS V14.01,2013-10-19 16:36:00,
2013-10-19 11:38:00,51.2,30.6,29.87,SSW,202,0.0,0.0,45,0.00,,FEW100,0.00,VWS V14.01,2013-10-19 16:38:00,
2013-10-19 11:39:00,51.2,31.1,29.87,West,270,4.0,4.0,46,0.00,,FEW100,0.00,VWS V14.01,2013-10-19 16:39:00,
2013-10-19 11:40:00,51.4,30.8,29.86,West,270,0.0,4.0,45,0.00,,CLR,0.00,VWS V14.01,2013-10-19 16:40:00,
2013-10-19 11:41:00,51.6,31.0,29.86,West,270,1.2,1.2,45,0.00,,CLR,0.00,VWS V14.01,2013-10-19 16:41:00,
2013-10-19 11:45:00,51.2,30.0,29.87,West,270,0.0,1.6,44,0.00,,CLR,0.00,VWS V14.01,2013-10-19 16:45:00,
2013-10-19 11:46:00,51.2,30.0,29.86,West,270,4.8,4.8,44,0.00,,CLR,0.00,VWS V14.01,2013-10-19 16:46:00,
2013-10-19 11:48:00,51.2,30.0,29.86,West,270,0.0,4.8,44,0.00,,CLR,0.00,VWS V14.01,2013-10-19 16:48:00,
2013-10-19 11:50:00,51.6,30.4,29.86,South,180,2.2,2.2,44,0.00,,CLR,0.00,VWS V14.01,2013-10-19 16:50:00,
2013-10-19 11:52:00,51.9,30.7,29.86,West,270,6.6,6.6,44,0.00,,CLR,0.00,VWS V14.01,2013-10-19 16:52:00,
2013-10-19 11:54:00,51.9,30.7,29.86,West,270,4.8,4.8,44,0.00,,CLR,0.00,VWS V14.01,2013-10-19 16:54:00,
2013-10-19 11:56:00,51.8,30.0,29.86,West,270,7.0,7.0,43,0.00,,CLR,0.00,VWS V14.01,2013-10-19 16:56:00,
2013-10-19 11:57:00,51.8,29.5,29.86,West,270,0.0,0.0,42,0.00,,CLR,0.00,VWS V14.01,2013-10-19 16:57:00,
2013-10-19 11:58:00,51.6,29.3,29.86,West,270,0.0,0.0,42,0.00,,CLR,0.00,VWS V14.01,2013-10-19 16:58:00,
2013-10-19 11:59:00,51.8,29.5,29.86,SW,225,7.0,7.0,42,0.00,,CLR,0.00,VWS V14.01,2013-10-19 16:59:00,
2013-10-19 12:01:00,51.6,29.3,29.86,West,270,1.2,1.2,42,0.00,,CLR,0.00,VWS V14.01,2013-10-19 17:01:00,
2013-10-19 12:03:00,51.4,28.5,29.86,West,270,6.2,6.2,41,0.00,,CLR,0.00,VWS V14.01,2013-10-19 17:03:00,
2013-10-19 12:04:00,51.4,28.5,29.85,West,270,0.0,6.2,41,0.00,,CLR,0.00,VWS V14.01,2013-10-19 17:04:00,
2013-10-19 12:06:00,51.9,29.5,29.86,West,270,5.2,9.8,42,0.00,,CLR,0.00,VWS V14.01,2013-10-19 17:06:00,
2013-10-19 12:10:00,52.3,29.3,29.86,West,270,9.2,9.2,41,0.00,,CLR,0.00,VWS V14.01,2013-10-19 17:10:00,
2013-10-19 12:11:00,52.3,29.3,29.86,West,270,9.2,9.2,41,0.00,,CLR,0.00,VWS V14.01,2013-10-19 17:11:00,
2013-10-19 12:12:00,52.1,29.1,29.86,West,270,6.6,9.2,41,0.00,,CLR,0.00,VWS V14.01,2013-10-19 17:12:00,
2013-10-19 12:16:00,52.3,29.3,29.86,West,270,4.4,5.8,41,0.00,,CLR,0.00,VWS V14.01,2013-10-19 17:16:00,
2013-10-19 12:17:00,52.3,29.3,29.86,West,270,0.0,0.0,41,0.00,,CLR,0.00,VWS V14.01,2013-10-19 17:17:00,
2013-10-19 12:19:00,52.7,29.1,29.85,SW,225,5.8,5.8,40,0.00,,CLR,0.00,VWS V14.01,2013-10-19 17:19:00,
2013-10-19 12:20:00,52.7,28.5,29.85,South,180,2.6,5.8,39,0.00,,CLR,0.00,VWS V14.01,2013-10-19 17:20:00,
2013-10-19 12:24:00,53.0,28.7,29.85,West,270,5.2,5.2,39,0.00,,CLR,0.00,VWS V14.01,2013-10-19 17:24:00,
2013-10-19 12:25:00,53.0,28.7,29.85,West,270,5.2,5.2,39,0.00,,CLR,0.00,VWS V14.01,2013-10-19 17:25:00,
2013-10-19 12:26:00,52.7,27.8,29.85,West,270,2.2,5.2,38,0.00,,CLR,0.00,VWS V14.01,2013-10-19 17:26:00,
2013-10-19 12:30:00,52.5,27.6,29.85,West,270,4.8,4.8,38,0.00,,CLR,0.00,VWS V14.01,2013-10-19 17:30:00,
2013-10-19 12:31:00,52.5,28.3,29.86,West,270,2.6,2.6,39,0.00,,CLR,0.00,VWS V14.01,2013-10-19 17:31:00,
2013-10-19 12:33:00,52.3,28.1,29.85,West,270,2.2,2.2,39,0.00,,CLR,0.00,VWS V14.01,2013-10-19 17:33:00,
2013-10-19 12:34:00,52.1,27.9,29.85,WSW,248,11.6,11.6,39,0.00,,CLR,0.00,VWS V14.01,2013-10-19 17:34:00,
2013-10-19 12:36:00,52.1,27.3,29.85,WSW,248,2.2,2.2,38,0.00,,CLR,0.00,VWS V14.01,2013-10-19 17:36:00,
2013-10-19 12:38:00,52.7,27.8,29.85,West,270,8.4,8.4,38,0.00,,CLR,0.00,VWS V14.01,2013-10-19 17:38:00,
2013-10-19 12:39:00,52.8,27.9,29.85,WSW,248,4.0,4.0,38,0.00,,CLR,0.00,VWS V14.01,2013-10-19 17:39:00,
2013-10-19 12:40:00,53.0,27.4,29.85,West,270,5.2,6.6,37,0.00,,CLR,0.00,VWS V14.01,2013-10-19 17:40:00,
2013-10-19 12:44:00,53.0,27.4,29.85,WNW,292,0.0,2.6,37,0.00,,CLR,0.00,VWS V14.01,2013-10-19 17:44:00,
2013-10-19 12:48:00,53.4,27.8,29.84,West,270,4.8,6.6,37,0.00,,CLR,0.00,VWS V14.01,2013-10-19 17:48:00,
2013-10-19 12:50:00,53.0,26.1,29.84,West,270,2.2,5.8,35,0.00,,CLR,0.00,VWS V14.01,2013-10-19 17:50:00,
2013-10-19 12:52:00,52.7,25.8,29.85,SW,225,4.8,4.8,35,0.00,,CLR,0.00,VWS V14.01,2013-10-19 17:52:00,
2013-10-19 12:53:00,52.7,25.8,29.84,West,270,0.0,0.0,35,0.00,,CLR,0.00,VWS V14.01,2013-10-19 17:53:00,
2013-10-19 12:56:00,52.5,25.7,29.84,WSW,248,5.2,5.2,35,0.00,,CLR,0.00,VWS V14.01,2013-10-19 17:56:00,
2013-10-19 12:58:00,52.7,25.8,29.84,West,270,0.0,5.2,35,0.00,,CLR,0.00,VWS V14.01,2013-10-19 17:58:00,
2013-10-19 13:00:00,52.7,25.8,29.84,West,270,4.8,4.8,35,0.00,,CLR,0.06,VWS V14.01,2013-10-19 18:00:00,
2013-10-19 13:02:00,52.7,25.8,29.84,WSW,248,6.2,6.2,35,0.00,,CLR,0.00,VWS V14.01,2013-10-19 18:02:00,
2013-10-19 13:03:00,52.7,25.8,29.84,WNW,292,0.0,6.2,35,0.00,,CLR,0.00,VWS V14.01,2013-10-19 18:03:00,
2013-10-19 13:05:00,52.7,25.8,29.84,West,270,5.2,5.2,35,0.00,,CLR,0.00,VWS V14.01,2013-10-19 18:05:00,
2013-10-19 13:07:00,52.7,25.8,29.83,West,270,0.0,0.0,35,0.00,,CLR,0.00,VWS V14.01,2013-10-19 18:07:00,
2013-10-19 13:08:00,52.7,25.8,29.83,West,270,0.0,0.0,35,0.00,,CLR,0.00,VWS V14.01,2013-10-19 18:08:00,
2013-10-19 13:10:00,52.8,25.9,29.83,West,270,4.8,4.8,35,0.00,,CLR,0.00,VWS V14.01,2013-10-19 18:10:00,
2013-10-19 13:12:00,53.0,26.1,29.83,SW,225,6.2,6.2,35,0.00,,CLR,0.00,VWS V14.01,2013-10-19 18:12:00,
2013-10-19 13:13:00,53.2,26.3,29.83,SW,225,5.8,6.2,35,0.00,,CLR,0.00,VWS V14.01,2013-10-19 18:13:00,
2013-10-19 13:15:00,53.7,27.4,29.83,South,180,2.6,2.6,36,0.00,,CLR,0.00,VWS V14.01,2013-10-19 18:15:00,
2013-10-19 13:18:00,54.8,27.7,29.83,WSW,248,12.8,12.8,35,0.00,,CLR,0.00,VWS V14.01,2013-10-19 18:18:00,
2013-10-19 13:20:00,54.6,26.8,29.83,WSW,248,10.2,12.8,34,0.00,,CLR,0.00,VWS V14.01,2013-10-19 18:20:00,
2013-10-19 13:23:00,53.9,25.5,29.83,West,270,6.2,6.2,33,0.00,,CLR,0.00,VWS V14.01,2013-10-19 18:23:00,
2013-10-19 13:24:00,53.9,25.5,29.83,South,180,5.8,5.8,33,0.00,,CLR,0.00,VWS V14.01,2013-10-19 18:24:00,
2013-10-19 13:25:00,53.9,25.5,29.83,WSW,248,4.4,5.8,33,0.00,,CLR,0.00,VWS V14.01,2013-10-19 18:25:00,
2013-10-19 13:27:00,53.9,25.5,29.82,SSW,202,0.0,0.0,33,0.00,,CLR,0.00,VWS V14.01,2013-10-19 18:27:00,
2013-10-19 13:29:00,54.3,25.8,29.82,West,270,4.8,17.4,33,0.00,,CLR,0.00,VWS V14.01,2013-10-19 18:29:00,
2013-10-19 13:30:00,54.1,25.6,29.82,WSW,248,0.0,17.4,33,0.00,,CLR,0.00,VWS V14.01,2013-10-19 18:30:00,
2013-10-19 13:31:00,54.1,25.6,29.82,West,270,5.2,5.2,33,0.00,,CLR,0.00,VWS V14.01,2013-10-19 18:31:00,
2013-10-19 13:34:00,53.9,24.7,29.82,West,270,5.2,5.2,32,0.00,,CLR,0.00,VWS V14.01,2013-10-19 18:34:00,
2013-10-19 13:35:00,53.9,24.7,29.82,WSW,248,12.4,12.4,32,0.00,,CLR,0.00,VWS V14.01,2013-10-19 18:35:00,
2013-10-19 13:36:00,53.9,24.7,29.82,West,270,7.0,12.4,32,0.00,,CLR,0.00,VWS V14.01,2013-10-19 18:36:00,
2013-10-19 13:37:00,53.7,23.8,29.82,SW,225,0.8,7.0,31,0.00,,CLR,0.00,VWS V14.01,2013-10-19 18:37:00,
2013-10-19 13:38:00,53.7,23.8,29.82,WSW,248,0.0,0.0,31,0.00,,CLR,0.00,VWS V14.01,2013-10-19 18:38:00,
2013-10-19 13:41:00,53.9,24.7,29.82,WSW,248,3.4,3.4,32,0.00,,BKN085,0.00,VWS V14.01,2013-10-19 18:41:00,
2013-10-19 13:42:00,53.9,24.0,29.81,West,270,1.6,3.4,31,0.00,,BKN085,0.00,VWS V14.01,2013-10-19 18:42:00,
2013-10-19 13:44:00,53.9,24.0,29.81,SW,225,0.0,0.0,31,0.00,,BKN085,0.00,VWS V14.01,2013-10-19 18:44:00,
2013-10-19 13:45:00,53.9,24.7,29.81,SSE,158,8.4,8.4,32,0.00,,BKN085,0.00,VWS V14.01,2013-10-19 18:45:00,
2013-10-19 13:48:00,54.1,24.9,29.81,WNW,292,0.0,4.8,32,0.00,,BKN085,0.00,VWS V14.01,2013-10-19 18:48:00,
2013-10-19 13:49:00,54.3,25.1,29.81,West,270,4.8,4.8,32,0.00,,BKN085,0.00,VWS V14.01,2013-10-19 18:49:00,
2013-10-19 13:50:00,54.3,25.1,29.81,West,270,3.4,4.8,32,0.00,,BKN085,0.00,VWS V14.01,2013-10-19 18:50:00,
2013-10-19 13:53:00,54.3,24.3,29.81,West,270,0.0,6.2,31,0.00,,BKN085,0.00,VWS V14.01,2013-10-19 18:53:00,
2013-10-19 13:54:00,54.1,23.4,29.81,WNW,292,9.2,9.2,30,0.00,,BKN085,0.00,VWS V14.01,2013-10-19 18:54:00,
2013-10-19 13:55:00,53.9,23.2,29.81,West,270,6.2,9.2,30,0.00,,BKN085,0.00,VWS V14.01,2013-10-19 18:55:00,
2013-10-19 13:56:00,53.7,22.2,29.81,WSW,248,4.8,9.2,29,0.00,,BKN085,0.00,VWS V14.01,2013-10-19 18:56:00,
2013-10-19 13:57:00,53.7,22.2,29.81,West,270,0.0,4.8,29,0.00,,BKN085,0.00,VWS V14.01,2013-10-19 18:57:00,
2013-10-19 13:59:00,53.7,23.0,29.81,West,270,5.2,5.2,30,0.00,,BKN085,0.00,VWS V14.01,2013-10-19 18:59:00,
2013-10-19 14:02:00,53.4,22.8,29.80,West,270,0.0,0.0,30,0.00,,BKN085,0.00,VWS V14.01,2013-10-19 19:02:00,
2013-10-19 14:03:00,53.4,22.8,29.80,WNW,292,11.0,11.0,30,0.00,,BKN085,0.00,VWS V14.01,2013-10-19 19:03:00,
2013-10-19 14:04:00,53.4,22.8,29.80,SW,225,4.4,11.0,30,0.00,,BKN085,0.00,VWS V14.01,2013-10-19 19:04:00,
2013-10-19 14:05:00,53.4,22.8,29.80,West,270,8.4,8.4,30,0.00,,BKN085,0.00,VWS V14.01,2013-10-19 19:05:00,
2013-10-19 14:09:00,53.2,22.6,29.80,SW,225,6.6,14.2,30,0.00,,BKN085,0.00,VWS V14.01,2013-10-19 19:09:00,
2013-10-19 14:10:00,53.2,22.6,29.80,South,180,11.0,14.2,30,0.00,,BKN085,0.00,VWS V14.01,2013-10-19 19:10:00,
2013-10-19 14:15:00,53.4,22.8,29.80,SSW,202,0.8,4.0,30,0.00,,BKN085,0.00,VWS V14.01,2013-10-19 19:15:00,
2013-10-19 14:16:00,53.2,21.8,29.80,NNW,338,4.0,4.0,29,0.00,,BKN085,0.00,VWS V14.01,2013-10-19 19:16:00,
2013-10-19 14:17:00,53.4,22.8,29.80,West,270,2.6,4.0,30,0.00,,BKN085,0.00,VWS V14.01,2013-10-19 19:17:00,
2013-10-19 14:19:00,53.4,22.0,29.80,West,270,5.2,6.2,29,0.00,,BKN085,0.00,VWS V14.01,2013-10-19 19:19:00,
2013-10-19 14:21:00,53.4,22.0,29.80,West,270,6.2,6.2,29,0.00,,BKN085,0.00,VWS V14.01,2013-10-19 19:21:00,
2013-10-19 14:22:00,53.4,22.0,29.80,WSW,248,13.8,13.8,29,0.00,,BKN085,0.00,VWS V14.01,2013-10-19 19:22:00,
2013-10-19 14:25:00,53.4,21.1,29.80,WNW,292,5.2,5.2,28,0.00,,BKN085,0.00,VWS V14.01,2013-10-19 19:25:00,
2013-10-19 14:26:00,53.4,22.0,29.80,WNW,292,0.0,0.0,29,0.00,,BKN085,0.00,VWS V14.01,2013-10-19 19:26:00,
2013-10-19 14:27:00,53.6,22.1,29.80,West,270,3.0,3.0,29,0.00,,BKN085,0.00,VWS V14.01,2013-10-19 19:27:00,
2013-10-19 14:28:00,53.6,22.1,29.80,WSW,248,6.2,6.2,29,0.00,,BKN085,0.00,VWS V14.01,2013-10-19 19:28:00,
2013-10-19 14:30:00,53.7,22.2,29.80,West,270,2.2,2.2,29,0.00,,BKN085,0.00,VWS V14.01,2013-10-19 19:30:00,
2013-10-19 14:31:00,53.7,22.2,29.80,SW,225,4.8,4.8,29,0.00,,BKN085,0.00,VWS V14.01,2013-10-19 19:31:00,
2013-10-19 14:33:00,53.7,22.2,29.80,West,270,2.2,6.2,29,0.00,,BKN085,0.00,VWS V14.01,2013-10-19 19:33:00,
2013-10-19 14:34:00,53.6,21.3,29.80,SW,225,1.2,1.2,28,0.00,,BKN085,0.00,VWS V14.01,2013-10-19 19:34:00,
2013-10-19 14:36:00,53.7,22.2,29.80,West,270,3.4,4.4,29,0.00,,BKN085,0.00,VWS V14.01,2013-10-19 19:36:00,
2013-10-19 14:37:00,53.7,22.2,29.80,West,270,0.0,3.4,29,0.00,,BKN085,0.00,VWS V14.01,2013-10-19 19:37:00,
2013-10-19 14:39:00,53.7,22.2,29.80,WSW,248,5.2,5.2,29,0.00,,BKN085,0.00,VWS V14.01,2013-10-19 19:39:00,
2013-10-19 14:40:00,53.7,22.2,29.80,SW,225,3.4,5.2,29,0.00,,BKN085,0.00,VWS V14.01,2013-10-19 19:40:00,
2013-10-19 14:41:00,53.7,22.2,29.80,WSW,248,2.2,2.2,29,0.00,,OVC090,0.00,VWS V14.01,2013-10-19 19:41:00,
2013-10-19 14:42:00,53.7,22.2,29.80,SW,225,0.0,8.8,29,0.00,,OVC090,0.00,VWS V14.01,2013-10-19 19:42:00,
2013-10-19 14:43:00,53.7,22.2,29.80,SW,225,0.0,0.0,29,0.00,,OVC090,0.00,VWS V14.01,2013-10-19 19:43:00,
2013-10-19 14:44:00,53.7,22.2,29.80,West,270,0.0,0.0,29,0.00,,OVC090,0.00,VWS V14.01,2013-10-19 19:44:00,
2013-10-19 14:45:00,53.7,22.2,29.80,West,270,2.2,2.2,29,0.00,,OVC090,0.00,VWS V14.01,2013-10-19 19:45:00,
2013-10-19 14:47:00,53.7,23.0,29.80,SW,225,0.0,0.0,30,0.00,,OVC090,0.00,VWS V14.01,2013-10-19 19:47:00,
2013-10-19 14:49:00,53.7,23.0,29.80,WSW,248,6.6,6.6,30,0.00,,OVC090,0.00,VWS V14.01,2013-10-19 19:49:00,
2013-10-19 14:50:00,53.7,23.0,29.80,WSW,248,4.0,6.6,30,0.00,,OVC090,0.00,VWS V14.01,2013-10-19 19:50:00,
2013-10-19 14:51:00,53.7,23.0,29.80,SW,225,5.8,5.8,30,0.00,,OVC090,0.00,VWS V14.01,2013-10-19 19:51:00,
2013-10-19 14:52:00,53.6,22.9,29.80,West,270,0.0,5.8,30,0.00,,OVC090,0.00,VWS V14.01,2013-10-19 19:52:00,
2013-10-19 14:54:00,53.4,22.8,29.80,West,270,3.0,3.0,30,0.00,,OVC090,0.00,VWS V14.01,2013-10-19 19:54:00,
2013-10-19 14:55:00,53.4,22.8,29.80,West,270,0.0,0.0,30,0.00,,OVC090,0.00,VWS V14.01,2013-10-19 19:55:00,
2013-10-19 14:56:00,53.4,22.8,29.80,WSW,248,2.6,2.6,30,0.00,,OVC090,0.00,VWS V14.01,2013-10-19 19:56:00,
2013-10-19 14:57:00,53.4,22.8,29.80,WSW,248,4.0,4.0,30,0.00,,OVC090,0.00,VWS V14.01,2013-10-19 19:57:00,
2013-10-19 15:00:00,53.4,22.8,29.80,West,270,8.8,8.8,30,0.00,,OVC090,0.00,VWS V14.01,2013-10-19 20:00:00,
2013-10-19 15:02:00,53.4,22.8,29.80,SW,225,3.0,6.6,30,0.00,,OVC090,0.00,VWS V14.01,2013-10-19 20:02:00,
2013-10-19 15:03:00,53.2,22.6,29.80,WSW,248,4.0,4.0,30,0.00,,OVC090,0.00,VWS V14.01,2013-10-19 20:03:00,
2013-10-19 15:04:00,53.2,22.6,29.80,West,270,6.2,6.2,30,0.00,,OVC090,0.00,VWS V14.01,2013-10-19 20:04:00,
2013-10-19 15:06:00,53.0,22.4,29.80,West,270,6.6,6.6,30,0.00,,OVC090,0.00,VWS V14.01,2013-10-19 20:06:00,
2013-10-19 15:08:00,53.0,22.4,29.80,West,270,4.8,7.6,30,0.00,,OVC090,0.00,VWS V14.01,2013-10-19 20:08:00,
2013-10-19 15:10:00,53.0,22.4,29.81,WSW,248,2.6,3.4,30,0.00,,OVC090,0.00,VWS V14.01,2013-10-19 20:10:00,
2013-10-19 15:11:00,53.0,22.4,29.81,WSW,248,2.6,2.6,30,0.00,,OVC090,0.00,VWS V14.01,2013-10-19 20:11:00,
2013-10-19 15:13:00,52.8,22.2,29.81,West,270,3.4,3.4,30,0.00,,OVC090,0.00,VWS V14.01,2013-10-19 20:13:00,
2013-10-19 15:14:00,52.8,22.2,29.81,WSW,248,3.4,3.4,30,0.00,,OVC090,0.00,VWS V14.01,2013-10-19 20:14:00,
2013-10-19 15:15:00,52.7,22.2,29.81,West,270,4.8,4.8,30,0.00,,OVC090,0.00,VWS V14.01,2013-10-19 20:15:00,
2013-10-19 15:16:00,52.7,22.9,29.81,West,270,6.2,6.2,31,0.00,,OVC090,0.00,VWS V14.01,2013-10-19 20:16:00,
2013-10-19 15:18:00,52.5,22.8,29.81,West,270,7.0,7.0,31,0.00,,OVC090,0.00,VWS V14.01,2013-10-19 20:18:00,
2013-10-19 15:20:00,52.3,23.3,29.81,WSW,248,8.8,8.8,32,0.00,,OVC090,0.00,VWS V14.01,2013-10-19 20:20:00,
2013-10-19 15:21:00,52.5,23.5,29.81,West,270,6.2,6.2,32,0.00,,OVC090,0.00,VWS V14.01,2013-10-19 20:21:00,
2013-10-19 15:23:00,52.3,23.3,29.81,West,270,5.2,5.2,32,0.00,,OVC090,0.00,VWS V14.01,2013-10-19 20:23:00,
2013-10-19 15:26:00,52.1,24.6,29.81,West,270,7.0,7.0,34,0.00,,OVC090,0.00,VWS V14.01,2013-10-19 20:26:00,
2013-10-19 15:28:00,51.9,24.4,29.82,West,270,1.2,11.0,34,0.00,,OVC090,0.00,VWS V14.01,2013-10-19 20:28:00,
2013-10-19 15:31:00,51.8,25.0,29.82,West,270,3.4,3.4,35,0.00,,OVC090,0.00,VWS V14.01,2013-10-19 20:31:00,
2013-10-19 15:32:00,51.6,24.9,29.82,West,270,0.0,3.4,35,0.00,,OVC090,0.00,VWS V14.01,2013-10-19 20:32:00,
2013-10-19 15:34:00,51.6,25.5,29.82,West,270,0.0,2.2,36,0.00,,OVC090,0.00,VWS V14.01,2013-10-19 20:34:00,
2013-10-19 15:35:00,51.6,25.5,29.82,SW,225,1.6,1.6,36,0.00,,OVC090,0.00,VWS V14.01,2013-10-19 20:35:00,
2013-10-19 15:36:00,51.6,26.2,29.81,West,270,0.0,1.6,37,0.00,,OVC090,0.00,VWS V14.01,2013-10-19 20:36:00,
2013-10-19 15:40:00,51.4,26.7,29.81,West,270,7.0,7.0,38,0.00,,BKN085,0.00,VWS V14.01,2013-10-19 20:40:00,
2013-10-19 15:41:00,51.4,26.7,29.82,West,270,0.0,7.0,38,0.00,,BKN085,0.00,VWS V14.01,2013-10-19 20:41:00,
2013-10-19 15:42:00,51.4,26.7,29.82,West,270,0.0,7.0,38,0.00,,BKN085,0.00,VWS V14.01,2013-10-19 20:42:00,
2013-10-19 15:43:00,51.4,26.7,29.82,WNW,292,3.4,3.4,38,0.00,,BKN085,0.00,VWS V14.01,2013-10-19 20:43:00,
2013-10-19 15:46:00,51.4,26.7,29.82,West,270,7.6,8.8,38,0.00,,BKN085,0.00,VWS V14.01,2013-10-19 20:46:00,
2013-10-19 15:48:00,51.4,26.7,29.82,West,270,4.8,4.8,38,0.00,,BKN085,0.00,VWS V14.01,2013-10-19 20:48:00,
2013-10-19 15:50:00,51.2,26.5,29.83,West,270,8.4,8.4,38,0.00,,BKN085,0.00,VWS V14.01,2013-10-19 20:50:00,
2013-10-19 15:51:00,51.2,27.1,29.82,West,270,5.2,8.4,39,0.00,,BKN085,0.00,VWS V14.01,2013-10-19 20:51:00,
2013-10-19 15:52:00,51.2,27.1,29.83,West,270,1.6,8.4,39,0.00,,BKN085,0.00,VWS V14.01,2013-10-19 20:52:00,
2013-10-19 15:53:00,51.2,27.1,29.82,West,270,4.0,4.0,39,0.00,,BKN085,0.00,VWS V14.01,2013-10-19 20:53:00,
2013-10-19 15:54:00,51.0,26.9,29.82,WNW,292,6.6,6.6,39,0.00,,BKN085,0.00,VWS V14.01,2013-10-19 20:54:00,
2013-10-19 15:55:00,50.9,27.5,29.83,WNW,292,0.8,6.6,40,0.00,,BKN085,0.00,VWS V14.01,2013-10-19 20:55:00,
2013-10-19 15:57:00,50.9,27.5,29.83,WSW,248,4.8,4.8,40,0.00,,BKN085,0.00,VWS V14.01,2013-10-19 20:57:00,
2013-10-19 15:59:00,50.7,28.5,29.83,West,270,0.0,0.0,42,0.00,,BKN085,0.00,VWS V14.01,2013-10-19 20:59:00,
2013-10-19 16:00:00,50.7,28.5,29.83,West,270,0.0,0.0,42,0.00,,BKN085,0.00,VWS V14.01,2013-10-19 21:00:00,
2013-10-19 16:01:00,50.5,28.9,29.83,West,270,0.0,0.0,43,0.00,,BKN085,0.00,VWS V14.01,2013-10-19 21:01:00,
2013-10-19 16:03:00,50.3,28.7,29.83,West,270,0.0,0.0,43,0.00,,BKN085,0.00,VWS V14.01,2013-10-19 21:03:00,
2013-10-19 16:06:00,50.3,29.2,29.83,West,270,0.0,0.0,44,0.00,,BKN085,0.00,VWS V14.01,2013-10-19 21:06:00,
2013-10-19 16:07:00,50.3,29.2,29.82,West,270,0.0,0.0,44,0.00,,BKN085,0.00,VWS V14.01,2013-10-19 21:07:00,
2013-10-19 16:08:00,50.3,29.8,29.82,West,270,0.0,0.0,45,0.00,,BKN085,0.00,VWS V14.01,2013-10-19 21:08:00,
2013-10-19 16:10:00,50.3,29.8,29.82,WNW,292,0.0,0.0,45,0.00,,BKN085,0.00,VWS V14.01,2013-10-19 21:10:00,
2013-10-19 16:13:00,50.3,29.8,29.83,WNW,292,0.0,1.2,45,0.00,,BKN085,0.00,VWS V14.01,2013-10-19 21:13:00,
2013-10-19 16:14:00,50.3,29.8,29.82,West,270,0.0,1.2,45,0.00,,BKN085,0.00,VWS V14.01,2013-10-19 21:14:00,
2013-10-19 16:15:00,50.3,29.8,29.82,West,270,0.0,0.0,45,0.00,,BKN085,0.00,VWS V14.01,2013-10-19 21:15:00,
2013-10-19 16:16:00,50.3,29.8,29.82,West,270,0.0,0.0,45,0.00,,BKN085,0.00,VWS V14.01,2013-10-19 21:16:00,
2013-10-19 16:19:00,50.3,29.8,29.82,West,270,0.0,0.0,45,0.00,,BKN085,0.00,VWS V14.01,2013-10-19 21:19:00,
2013-10-19 16:21:00,50.3,29.8,29.82,West,270,0.0,0.0,45,0.00,,BKN085,0.00,VWS V14.01,2013-10-19 21:21:00,
2013-10-19 16:22:00,50.3,30.3,29.82,West,270,0.0,0.0,46,0.00,,BKN085,0.00,VWS V14.01,2013-10-19 21:22:00,
2013-10-19 16:23:00,50.3,30.3,29.82,West,270,0.0,0.0,46,0.00,,BKN085,0.00,VWS V14.01,2013-10-19 21:23:00,
2013-10-19 16:24:00,50.3,30.3,29.82,West,270,0.0,0.0,46,0.00,,BKN085,0.00,VWS V14.01,2013-10-19 21:24:00,
2013-10-19 16:26:00,50.3,30.3,29.82,West,270,0.0,0.0,46,0.00,,BKN085,0.00,VWS V14.01,2013-10-19 21:26:00,
2013-10-19 16:27:00,50.3,30.3,29.82,West,270,0.0,0.0,46,0.00,,BKN085,0.00,VWS V14.01,2013-10-19 21:27:00,
2013-10-19 16:31:00,50.3,30.3,29.82,West,270,0.0,0.0,46,0.00,,BKN085,0.00,VWS V14.01,2013-10-19 21:31:00,
2013-10-19 16:32:00,50.3,30.9,29.82,West,270,0.0,0.0,47,0.00,,BKN085,0.00,VWS V14.01,2013-10-19 21:32:00,
2013-10-19 16:33:00,50.3,30.9,29.82,West,270,0.0,0.0,47,0.00,,BKN085,0.00,VWS V14.01,2013-10-19 21:33:00,
2013-10-19 16:34:00,50.3,30.9,29.82,West,270,0.0,0.0,47,0.00,,BKN085,0.00,VWS V14.01,2013-10-19 21:34:00,
2013-10-19 16:35:00,50.3,30.9,29.82,West,270,0.0,0.0,47,0.00,,BKN085,0.00,VWS V14.01,2013-10-19 21:35:00,
2013-10-19 16:36:00,50.3,30.9,29.82,North,0,0.0,0.0,47,0.00,,BKN085,0.00,VWS V14.01,2013-10-19 21:36:00,
2013-10-19 16:40:00,50.3,30.9,29.82,West,270,0.0,0.0,47,0.00,,OVC060,0.00,VWS V14.01,2013-10-19 21:40:00,
2013-10-19 16:41:00,50.3,30.9,29.82,West,270,0.0,0.0,47,0.00,,OVC060,0.00,VWS V14.01,2013-10-19 21:41:00,
2013-10-19 16:42:00,50.3,30.9,29.82,West,270,0.0,0.0,47,0.00,,OVC060,0.00,VWS V14.01,2013-10-19 21:42:00,
2013-10-19 16:46:00,50.5,31.0,29.82,West,270,0.0,0.0,47,0.00,,OVC060,0.00,VWS V14.01,2013-10-19 21:46:00,
2013-10-19 16:47:00,50.5,31.0,29.82,West,270,0.0,0.0,47,0.00,,OVC060,0.00,VWS V14.01,2013-10-19 21:47:00,
2013-10-19 16:48:00,50.3,30.9,29.82,West,270,0.0,0.0,47,0.00,,OVC060,0.00,VWS V14.01,2013-10-19 21:48:00,
2013-10-19 16:51:00,50.3,30.9,29.82,West,270,0.0,0.0,47,0.00,,OVC060,0.00,VWS V14.01,2013-10-19 21:51:00,
2013-10-19 16:53:00,50.5,31.0,29.82,West,270,0.0,0.0,47,0.00,,OVC060,0.00,VWS V14.01,2013-10-19 21:53:00,
2013-10-19 16:54:00,50.5,31.0,29.82,West,270,0.0,0.0,47,0.00,,OVC060,0.00,VWS V14.01,2013-10-19 21:54:00,
2013-10-19 16:56:00,50.5,31.0,29.82,West,270,0.0,0.0,47,0.00,,OVC060,0.00,VWS V14.01,2013-10-19 21:56:00,
2013-10-19 16:58:00,50.5,31.0,29.82,West,270,0.0,0.0,47,0.00,,OVC060,0.00,VWS V14.01,2013-10-19 21:58:00,
2013-10-19 17:01:00,50.5,31.0,29.82,West,270,0.0,0.0,47,0.00,,OVC060,0.00,VWS V14.01,2013-10-19 22:01:00,
2013-10-19 17:02:00,50.5,31.0,29.82,West,270,0.0,0.0,47,0.00,,OVC060,0.00,VWS V14.01,2013-10-19 22:02:00,
2013-10-19 17:03:00,50.5,31.0,29.82,West,270,0.0,0.0,47,0.00,,OVC060,0.00,VWS V14.01,2013-10-19 22:03:00,
2013-10-19 17:04:00,50.7,31.2,29.82,West,270,0.0,0.0,47,0.00,,OVC060,0.00,VWS V14.01,2013-10-19 22:04:00,
2013-10-19 17:05:00,50.7,31.2,29.82,West,270,0.0,0.0,47,0.00,,OVC060,0.00,VWS V14.01,2013-10-19 22:05:00,
2013-10-19 17:07:00,50.5,31.0,29.82,West,270,0.0,0.0,47,0.00,,OVC060,0.00,VWS V14.01,2013-10-19 22:07:00,
2013-10-19 17:09:00,50.7,31.7,29.82,West,270,0.0,0.0,48,0.00,,OVC060,0.00,VWS V14.01,2013-10-19 22:09:00,
2013-10-19 17:10:00,50.7,31.7,29.82,West,270,0.0,0.0,48,0.00,,OVC060,0.00,VWS V14.01,2013-10-19 22:10:00,
2013-10-19 17:12:00,50.5,31.6,29.82,West,270,0.0,0.0,48,0.00,,OVC060,0.00,VWS V14.01,2013-10-19 22:12:00,
2013-10-19 17:13:00,50.5,31.6,29.82,West,270,0.0,0.0,48,0.00,,OVC060,0.00,VWS V14.01,2013-10-19 22:13:00,
2013-10-19 17:15:00,50.3,31.9,29.82,West,270,0.0,0.0,49,0.00,,OVC060,0.00,VWS V14.01,2013-10-19 22:15:00,
2013-10-19 17:16:00,50.3,31.9,29.82,West,270,0.0,0.0,49,0.00,,OVC060,0.00,VWS V14.01,2013-10-19 22:16:00,
2013-10-19 17:17:00,50.3,31.9,29.82,West,270,0.0,0.0,49,0.00,,OVC060,0.00,VWS V14.01,2013-10-19 22:17:00,
2013-10-19 17:18:00,50.3,31.9,29.82,West,270,0.0,0.0,49,0.00,,OVC060,0.00,VWS V14.01,2013-10-19 22:18:00,
2013-10-19 17:21:00,50.3,31.9,29.82,West,270,0.0,0.0,49,0.00,,OVC060,0.00,VWS V14.01,2013-10-19 22:21:00,
2013-10-19 17:22:00,50.3,32.4,29.82,NNW,338,28.0,28.0,50,0.00,,OVC060,0.00,VWS V14.01,2013-10-19 22:22:00,
2013-10-19 17:23:00,50.3,32.4,29.82,West,270,0.0,28.0,50,0.00,,OVC060,0.00,VWS V14.01,2013-10-19 22:23:00,
2013-10-19 17:24:00,50.3,32.4,29.82,West,270,0.0,28.0,50,0.00,,OVC060,0.00,VWS V14.01,2013-10-19 22:24:00,
2013-10-19 17:28:00,50.3,32.9,29.82,West,270,0.0,0.0,51,0.00,,OVC060,0.00,VWS V14.01,2013-10-19 22:28:00,
2013-10-19 17:29:00,50.3,32.9,29.82,West,270,0.0,0.0,51,0.00,,OVC060,0.00,VWS V14.01,2013-10-19 22:29:00,
2013-10-19 17:30:00,50.3,32.9,29.82,West,270,0.0,0.0,51,0.00,,OVC060,0.00,VWS V14.01,2013-10-19 22:30:00,
2013-10-19 17:32:00,50.1,32.7,29.82,West,270,0.0,0.0,51,0.00,,OVC060,0.00,VWS V14.01,2013-10-19 22:32:00,
2013-10-19 17:34:00,50.1,33.2,29.81,West,270,0.0,0.0,52,0.00,,OVC060,0.00,VWS V14.01,2013-10-19 22:34:00,
2013-10-19 17:35:00,50.1,33.2,29.81,South,180,0.0,0.0,52,0.00,,OVC060,0.00,VWS V14.01,2013-10-19 22:35:00,
2013-10-19 17:36:00,50.1,33.2,29.81,SSE,158,0.0,0.0,52,0.00,,OVC060,0.00,VWS V14.01,2013-10-19 22:36:00,
2013-10-19 17:39:00,50.1,33.2,29.81,South,180,0.0,0.0,52,0.00,,OVC060,0.00,VWS V14.01,2013-10-19 22:39:00,
2013-10-19 17:40:00,50.1,33.2,29.81,South,180,0.0,0.0,52,0.00,,OVC060,0.00,VWS V14.01,2013-10-19 22:40:00,
2013-10-19 17:42:00,50.1,33.2,29.81,SSE,158,0.0,0.0,52,0.00,,OVC110,0.00,VWS V14.01,2013-10-19 22:42:00,
2013-10-19 17:45:00,50.1,33.2,29.80,SSE,158,0.0,0.0,52,0.00,,OVC110,0.00,VWS V14.01,2013-10-19 22:45:00,
2013-10-19 17:46:00,50.1,33.2,29.81,SSE,158,0.0,0.0,52,0.00,,OVC110,0.00,VWS V14.01,2013-10-19 22:46:00,
2013-10-19 17:47:00,50.3,32.9,29.80,South,180,0.0,0.0,51,0.00,,OVC110,0.00,VWS V14.01,2013-10-19 22:47:00,
2013-10-19 17:48:00,50.3,32.9,29.80,South,180,2.2,2.2,51,0.00,,OVC110,0.00,VWS V14.01,2013-10-19 22:48:00,
2013-10-19 17:51:00,50.3,32.9,29.81,SSE,158,0.0,0.0,51,0.00,,OVC110,0.00,VWS V14.01,2013-10-19 22:51:00,
2013-10-19 17:52:00,50.3,32.9,29.81,SSW,202,0.0,0.0,51,0.00,,OVC110,0.00,VWS V14.01,2013-10-19 22:52:00,
2013-10-19 17:54:00,50.5,33.1,29.81,SSW,202,0.0,0.0,51,0.00,,OVC110,0.00,VWS V14.01,2013-10-19 22:54:00,
2013-10-19 17:56:00,50.5,32.6,29.81,SSW,202,0.0,0.0,50,0.00,,OVC110,0.00,VWS V14.01,2013-10-19 22:56:00,
2013-10-19 17:58:00,50.7,32.8,29.81,SSW,202,0.0,0.0,50,0.00,,OVC110,0.00,VWS V14.01,2013-10-19 22:58:00,
2013-10-19 18:01:00,50.3,32.4,29.82,SSW,202,0.0,0.0,50,0.00,,OVC110,0.00,VWS V14.01,2013-10-19 23:01:00,
2013-10-19 18:02:00,50.5,32.6,29.82,SSW,202,0.0,0.0,50,0.00,,OVC110,0.00,VWS V14.01,2013-10-19 23:02:00,
2013-10-19 18:03:00,50.7,32.8,29.82,SSW,202,0.0,0.0,50,0.00,,OVC110,0.00,VWS V14.01,2013-10-19 23:03:00,
2013-10-19 18:07:00,50.7,32.2,29.82,SSW,202,0.0,0.0,49,0.00,,OVC110,0.00,VWS V14.01,2013-10-19 23:07:00,
2013-10-19 18:08:00,50.7,32.2,29.82,SSE,158,0.0,0.0,49,0.00,,OVC110,0.00,VWS V14.01,2013-10-19 23:08:00,
2013-10-19 18:09:00,50.7,32.2,29.82,SSE,158,0.0,0.0,49,0.00,,OVC110,0.00,VWS V14.01,2013-10-19 23:09:00,
2013-10-19 18:10:00,50.7,32.2,29.82,SSE,158,0.0,0.0,49,0.00,,OVC110,0.00,VWS V14.01,2013-10-19 23:10:00,
2013-10-19 18:14:00,50.9,31.4,29.81,SSE,158,0.0,0.0,47,0.00,,OVC110,0.00,VWS V14.01,2013-10-19 23:14:00,
2013-10-19 18:16:00,50.9,31.9,29.82,SSE,158,0.0,0.0,48,0.00,,OVC110,0.00,VWS V14.01,2013-10-19 23:16:00,
2013-10-19 18:17:00,50.9,31.4,29.82,SSE,158,0.0,0.0,47,0.00,,OVC110,0.00,VWS V14.01,2013-10-19 23:17:00,
2013-10-19 18:18:00,50.7,31.7,29.81,SSE,158,0.0,0.0,48,0.00,,OVC110,0.00,VWS V14.01,2013-10-19 23:18:00,
2013-10-19 18:20:00,50.9,31.4,29.81,SSE,158,0.0,0.0,47,0.00,,OVC110,0.00,VWS V14.01,2013-10-19 23:20:00,
2013-10-19 18:23:00,50.9,31.4,29.81,SSE,158,0.0,0.0,47,0.00,,OVC110,0.00,VWS V14.01,2013-10-19 23:23:00,
2013-10-19 18:26:00,50.7,31.7,29.81,SSE,158,0.0,0.0,48,0.00,,OVC110,0.00,VWS V14.01,2013-10-19 23:26:00,
2013-10-19 18:27:00,50.9,31.4,29.81,SSE,158,0.0,0.0,47,0.00,,OVC110,0.00,VWS V14.01,2013-10-19 23:27:00,
2013-10-19 18:28:00,50.7,30.7,29.81,SSE,158,0.0,0.0,46,0.00,,OVC110,0.00,VWS V14.01,2013-10-19 23:28:00,
2013-10-19 18:29:00,50.7,31.2,29.81,SSE,158,0.0,0.0,47,0.00,,OVC110,0.00,VWS V14.01,2013-10-19 23:29:00,
2013-10-19 18:30:00,50.7,31.2,29.81,SSE,158,0.0,0.0,47,0.00,,OVC110,0.00,VWS V14.01,2013-10-19 23:30:00,
2013-10-19 18:31:00,50.7,31.2,29.81,SSE,158,0.0,0.0,47,0.00,,OVC110,0.00,VWS V14.01,2013-10-19 23:31:00,
2013-10-19 18:33:00,50.7,31.2,29.81,SSE,158,0.0,0.0,47,0.00,,OVC110,0.00,VWS V14.01,2013-10-19 23:33:00,
2013-10-19 18:36:00,50.7,31.2,29.81,SSE,158,0.0,0.0,47,0.00,,OVC110,0.00,VWS V14.01,2013-10-19 23:36:00,
2013-10-19 18:38:00,50.7,31.2,29.81,SSE,158,0.0,0.0,47,0.00,,OVC110,0.00,VWS V14.01,2013-10-19 23:38:00,
2013-10-19 18:39:00,50.7,31.2,29.82,SSE,158,0.0,0.0,47,0.00,,OVC110,0.00,VWS V14.01,2013-10-19 23:39:00,
2013-10-19 18:42:00,50.7,31.7,29.81,SSE,158,0.0,0.0,48,0.00,,OVC070,0.00,VWS V14.01,2013-10-19 23:42:00,
2013-10-19 18:44:00,50.7,31.7,29.81,SSE,158,0.0,0.0,48,0.00,,OVC070,0.00,VWS V14.01,2013-10-19 23:44:00,
2013-10-19 18:46:00,50.7,31.7,29.82,SSE,158,0.0,0.0,48,0.00,,OVC070,0.00,VWS V14.01,2013-10-19 23:46:00,
2013-10-19 18:48:00,50.7,31.7,29.82,SSE,158,0.0,0.0,48,0.00,,OVC070,0.00,VWS V14.01,2013-10-19 23:48:00,
2013-10-19 18:49:00,50.7,31.7,29.81,SSE,158,0.0,0.0,48,0.00,,OVC070,0.00,VWS V14.01,2013-10-19 23:49:00,
2013-10-19 18:50:00,50.7,31.7,29.82,SSE,158,0.0,0.0,48,0.00,,OVC070,0.00,VWS V14.01,2013-10-19 23:50:00,
2013-10-19 18:52:00,50.7,31.7,29.82,SSE,158,0.0,0.0,48,0.00,,OVC070,0.00,VWS V14.01,2013-10-19 23:52:00,
2013-10-19 18:54:00,50.7,31.7,29.81,SSE,158,0.0,0.0,48,0.00,,OVC070,0.00,VWS V14.01,2013-10-19 23:54:00,
2013-10-19 18:55:00,50.7,31.7,29.82,SSE,158,0.0,0.0,48,0.00,,OVC070,0.00,VWS V14.01,2013-10-19 23:55:00,
2013-10-19 18:56:00,50.7,31.7,29.81,SSE,158,0.0,0.0,48,0.00,,OVC070,0.00,VWS V14.01,2013-10-19 23:56:00,
2013-10-19 18:58:00,50.7,31.7,29.81,SSE,158,0.0,0.0,48,0.00,,OVC070,0.00,VWS V14.01,2013-10-19 23:58:00,
2013-10-19 19:01:00,50.5,31.6,29.81,SSE,158,0.0,0.0,48,0.00,,OVC070,0.00,VWS V14.01,2013-10-20 00:01:00,
2013-10-19 19:02:00,50.5,31.6,29.81,SSE,158,0.0,0.0,48,0.00,,OVC070,0.00,VWS V14.01,2013-10-20 00:02:00,
2013-10-19 19:03:00,50.5,31.6,29.82,SSE,158,0.0,0.0,48,0.00,,OVC070,0.00,VWS V14.01,2013-10-20 00:03:00,
2013-10-19 19:07:00,50.5,31.6,29.81,SSE,158,0.0,0.0,48,0.00,,OVC070,0.00,VWS V14.01,2013-10-20 00:07:00,
2013-10-19 19:08:00,50.7,31.7,29.82,SSE,158,0.0,0.0,48,0.00,,OVC070,0.00,VWS V14.01,2013-10-20 00:08:00,
2013-10-19 19:09:00,50.5,31.6,29.82,SSE,158,0.0,0.0,48,0.00,,OVC070,0.00,VWS V14.01,2013-10-20 00:09:00,
2013-10-19 19:12:00,50.5,31.6,29.82,SSE,158,0.0,0.0,48,0.00,,OVC100,0.00,VWS V14.01,2013-10-20 00:12:00,
2013-10-19 19:14:00,50.7,31.7,29.82,SSE,158,0.0,0.0,48,0.00,,OVC100,0.00,VWS V14.01,2013-10-20 00:14:00,
2013-10-19 19:15:00,50.7,31.7,29.82,SSE,158,0.0,0.0,48,0.00,,OVC100,0.00,VWS V14.01,2013-10-20 00:15:00,
2013-10-19 19:16:00,50.7,31.7,29.82,SSE,158,0.0,0.0,48,0.00,,OVC100,0.00,VWS V14.01,2013-10-20 00:16:00,
2013-10-19 19:18:00,50.5,31.6,29.82,SSE,158,0.0,0.0,48,0.00,,OVC100,0.00,VWS V14.01,2013-10-20 00:18:00,
2013-10-19 19:21:00,50.5,31.6,29.82,SSE,158,0.0,0.0,48,0.00,,OVC100,0.00,VWS V14.01,2013-10-20 00:21:00,
2013-10-19 19:22:00,50.5,31.6,29.82,SSE,158,0.0,0.0,48,0.00,,OVC100,0.00,VWS V14.01,2013-10-20 00:22:00,
2013-10-19 19:23:00,50.5,31.6,29.82,SSE,158,0.0,0.0,48,0.00,,OVC100,0.00,VWS V14.01,2013-10-20 00:23:00,
2013-10-19 19:24:00,50.5,31.6,29.82,SSE,158,0.0,0.0,48,0.00,,OVC100,0.00,VWS V14.01,2013-10-20 00:24:00,
2013-10-19 19:25:00,50.5,31.6,29.82,SSE,158,0.0,0.0,48,0.00,,OVC100,0.00,VWS V14.01,2013-10-20 00:25:00,
2013-10-19 19:29:00,50.7,31.7,29.82,SSE,158,0.0,0.0,48,0.00,,OVC100,0.00,VWS V14.01,2013-10-20 00:29:00,
2013-10-19 19:30:00,50.5,31.6,29.82,SSE,158,0.0,0.0,48,0.00,,OVC100,0.00,VWS V14.01,2013-10-20 00:30:00,
2013-10-19 19:31:00,50.7,31.7,29.82,SSE,158,0.0,0.0,48,0.00,,OVC100,0.00,VWS V14.01,2013-10-20 00:31:00,
2013-10-19 19:32:00,50.5,31.6,29.83,SSE,158,0.0,0.0,48,0.00,,OVC100,0.00,VWS V14.01,2013-10-20 00:32:00,
2013-10-19 19:36:00,50.3,31.4,29.83,SSE,158,0.0,0.0,48,0.00,,OVC100,0.00,VWS V14.01,2013-10-20 00:36:00,
2013-10-19 19:37:00,50.3,31.4,29.83,SSE,158,0.0,0.0,48,0.00,,OVC100,0.00,VWS V14.01,2013-10-20 00:37:00,
2013-10-19 19:38:00,50.3,31.4,29.82,SSE,158,0.0,0.0,48,0.00,,OVC100,0.00,VWS V14.01,2013-10-20 00:38:00,
2013-10-19 19:40:00,50.5,32.1,29.83,SSE,158,0.0,0.0,49,0.00,,OVC100,0.00,VWS V14.01,2013-10-20 00:40:00,
2013-10-19 19:42:00,50.5,32.1,29.83,SSE,158,0.0,0.0,49,0.00,,OVC100,0.00,VWS V14.01,2013-10-20 00:42:00,
2013-10-19 19:43:00,50.5,31.6,29.82,SSE,158,0.0,0.0,48,0.00,,OVC100,0.00,VWS V14.01,2013-10-20 00:43:00,
2013-10-19 19:44:00,50.5,32.1,29.83,SSE,158,0.0,0.0,49,0.00,,OVC100,0.00,VWS V14.01,2013-10-20 00:44:00,
2013-10-19 19:46:00,50.5,32.1,29.83,SSE,158,0.0,0.0,49,0.00,,OVC100,0.00,VWS V14.01,2013-10-20 00:46:00,
2013-10-19 19:47:00,50.7,32.2,29.83,SSE,158,0.0,0.0,49,0.00,,OVC100,0.00,VWS V14.01,2013-10-20 00:47:00,
2013-10-19 19:50:00,50.5,32.1,29.83,SSE,158,0.0,0.0,49,0.00,,OVC100,0.00,VWS V14.01,2013-10-20 00:50:00,
2013-10-19 19:51:00,50.5,32.1,29.83,SSE,158,0.0,0.0,49,0.00,,OVC100,0.00,VWS V14.01,2013-10-20 00:51:00,
2013-10-19 19:52:00,50.5,32.1,29.83,SSE,158,0.0,0.0,49,0.00,,OVC100,0.00,VWS V14.01,2013-10-20 00:52:00,
2013-10-19 19:53:00,50.5,32.1,29.83,SSE,158,0.0,0.0,49,0.00,,OVC100,0.00,VWS V14.01,2013-10-20 00:53:00,
2013-10-19 19:55:00,50.7,32.2,29.83,SSE,158,0.0,0.0,49,0.00,,OVC100,0.00,VWS V14.01,2013-10-20 00:55:00,
2013-10-19 19:56:00,50.7,32.2,29.83,SSE,158,0.0,0.0,49,0.00,,OVC100,0.00,VWS V14.01,2013-10-20 00:56:00,
2013-10-19 19:58:00,50.7,32.2,29.83,SSE,158,0.0,0.0,49,0.00,,OVC100,0.00,VWS V14.01,2013-10-20 00:58:00,
2013-10-19 20:00:00,50.7,32.2,29.83,SSE,158,0.0,0.0,49,0.00,,OVC100,0.00,VWS V14.01,2013-10-20 01:00:00,
2013-10-19 20:02:00,50.7,31.7,29.83,South,180,0.0,0.0,48,0.00,,OVC100,0.00,VWS V14.01,2013-10-20 01:02:00,
2013-10-19 20:04:00,50.7,31.7,29.83,South,180,0.0,0.0,48,0.00,,OVC100,0.00,VWS V14.01,2013-10-20 01:04:00,
2013-10-19 20:05:00,50.7,31.7,29.83,South,180,0.0,0.0,48,0.00,,OVC100,0.00,VWS V14.01,2013-10-20 01:05:00,
2013-10-19 20:06:00,50.7,31.7,29.83,South,180,0.0,0.0,48,0.00,,OVC100,0.00,VWS V14.01,2013-10-20 01:06:00,
2013-10-19 20:08:00,50.7,31.7,29.84,South,180,0.0,0.0,48,0.00,,OVC100,0.00,VWS V14.01,2013-10-20 01:08:00,
2013-10-19 20:09:00,50.7,31.7,29.84,South,180,0.0,0.0,48,0.00,,OVC100,0.00,VWS V14.01,2013-10-20 01:09:00,
2013-10-19 20:10:00,50.7,31.7,29.84,South,180,0.0,0.0,48,0.00,,OVC100,0.00,VWS V14.01,2013-10-20 01:10:00,
2013-10-19 20:11:00,50.7,31.2,29.83,South,180,0.0,0.0,47,0.00,,OVC100,0.00,VWS V14.01,2013-10-20 01:11:00,
2013-10-19 20:14:00,50.7,31.2,29.83,South,180,0.0,0.0,47,0.00,,OVC100,0.00,VWS V14.01,2013-10-20 01:14:00,
2013-10-19 20:15:00,50.5,31.0,29.83,South,180,0.0,0.0,47,0.00,,OVC100,0.00,VWS V14.01,2013-10-20 01:15:00,
2013-10-19 20:16:00,50.7,31.2,29.84,South,180,0.0,0.0,47,0.00,,OVC100,0.00,VWS V14.01,2013-10-20 01:16:00,
2013-10-19 20:18:00,50.5,31.0,29.83,South,180,0.0,0.0,47,0.00,,OVC100,0.00,VWS V14.01,2013-10-20 01:18:00,
2013-10-19 20:20:00,50.5,31.0,29.84,South,180,0.0,0.0,47,0.00,,OVC100,0.00,VWS V14.01,2013-10-20 01:20:00,
2013-10-19 20:24:00,50.3,30.9,29.84,South,180,0.0,0.0,47,0.00,,OVC100,0.00,VWS V14.01,2013-10-20 01:24:00,
2013-10-19 20:27:00,50.3,30.9,29.84,South,180,0.0,0.0,47,0.00,,OVC100,0.00,VWS V14.01,2013-10-20 01:27:00,
2013-10-19 20:28:00,50.3,30.9,29.84,South,180,0.0,0.0,47,0.00,,OVC100,0.00,VWS V14.01,2013-10-20 01:28:00,
2013-10-19 20:30:00,50.3,30.9,29.84,South,180,0.0,0.0,47,0.00,,OVC100,0.00,VWS V14.01,2013-10-20 01:30:00,
2013-10-19 20:31:00,50.3,30.9,29.84,South,180,0.0,0.0,47,0.00,,OVC100,0.00,VWS V14.01,2013-10-20 01:31:00,
2013-10-19 20:33:00,50.1,30.7,29.84,South,180,0.0,0.0,47,0.00,,OVC100,0.00,VWS V14.01,2013-10-20 01:33:00,
2013-10-19 20:36:00,50.3,30.9,29.84,South,180,0.0,0.0,47,0.00,,OVC100,0.00,VWS V14.01,2013-10-20 01:36:00,
2013-10-19 20:40:00,50.1,30.7,29.84,South,180,0.0,0.0,47,0.00,,OVC090,0.00,VWS V14.01,2013-10-20 01:40:00,
2013-10-19 20:42:00,50.1,31.2,29.84,SSE,158,0.0,0.0,48,0.00,,OVC090,0.00,VWS V14.01,2013-10-20 01:42:00,
2013-10-19 20:43:00,50.1,31.2,29.84,SSE,158,0.0,0.0,48,0.00,,OVC090,0.00,VWS V14.01,2013-10-20 01:43:00,
2013-10-19 20:45:00,50.0,31.1,29.84,SSE,158,0.0,0.0,48,0.00,,OVC090,0.00,VWS V14.01,2013-10-20 01:45:00,
2013-10-19 20:48:00,49.6,30.7,29.84,NNW,338,4.8,4.8,48,0.00,,OVC090,0.00,VWS V14.01,2013-10-20 01:48:00,
2013-10-19 20:50:00,49.4,30.5,29.84,NNW,338,0.0,1.6,48,0.00,,OVC090,0.00,VWS V14.01,2013-10-20 01:50:00,
2013-10-19 20:53:00,49.2,30.4,29.84,NNW,338,0.0,0.0,48,0.00,,OVC090,0.00,VWS V14.01,2013-10-20 01:53:00,
2013-10-19 20:54:00,49.2,30.4,29.84,NNW,338,4.8,4.8,48,0.00,,OVC090,0.00,VWS V14.01,2013-10-20 01:54:00,
2013-10-19 20:56:00,49.6,30.7,29.84,NNW,338,3.4,4.8,48,0.00,,OVC090,0.00,VWS V14.01,2013-10-20 01:56:00,
2013-10-19 20:58:00,49.4,30.5,29.84,NNW,338,0.0,0.0,48,0.00,,OVC090,0.00,VWS V14.01,2013-10-20 01:58:00,
2013-10-19 21:00:00,49.4,30.5,29.84,NNW,338,0.0,0.0,48,0.00,,OVC090,0.00,VWS V14.01,2013-10-20 02:00:00,
2013-10-19 21:01:00,49.4,30.5,29.84,NNW,338,0.0,0.0,48,0.00,,OVC090,0.00,VWS V14.01,2013-10-20 02:01:00,
2013-10-19 21:02:00,49.2,30.4,29.84,NNW,338,0.0,0.0,48,0.00,,OVC090,0.00,VWS V14.01,2013-10-20 02:02:00,
2013-10-19 21:05:00,48.9,29.6,29.84,NNW,338,0.0,0.0,47,0.00,,OVC090,0.00,VWS V14.01,2013-10-20 02:05:00,
2013-10-19 21:07:00,48.9,30.1,29.84,NNW,338,0.0,0.0,48,0.00,,OVC090,0.00,VWS V14.01,2013-10-20 02:07:00,
2013-10-19 21:08:00,48.7,29.9,29.84,NNW,338,0.0,0.0,48,0.00,,OVC090,0.00,VWS V14.01,2013-10-20 02:08:00,
2013-10-19 21:09:00,48.7,29.9,29.84,NNW,338,0.0,0.0,48,0.00,,OVC090,0.00,VWS V14.01,2013-10-20 02:09:00,
2013-10-19 21:11:00,48.3,29.5,29.84,NNW,338,0.0,0.0,48,0.00,,OVC090,0.00,VWS V14.01,2013-10-20 02:11:00,
2013-10-19 21:12:00,48.3,29.5,29.84,NNW,338,0.0,0.0,48,0.00,,OVC090,0.00,VWS V14.01,2013-10-20 02:12:00,
2013-10-19 21:14:00,48.3,30.0,29.84,NNW,338,0.0,0.0,49,0.00,,OVC090,0.00,VWS V14.01,2013-10-20 02:14:00,
2013-10-19 21:16:00,48.2,30.0,29.84,NNW,338,0.0,0.0,49,0.00,,OVC090,0.00,VWS V14.01,2013-10-20 02:16:00,
2013-10-19 21:17:00,48.0,29.8,29.84,NNW,338,0.0,0.0,49,0.00,,OVC090,0.00,VWS V14.01,2013-10-20 02:17:00,
2013-10-19 21:18:00,47.8,29.6,29.84,NNW,338,0.0,0.0,49,0.00,,OVC090,0.00,VWS V14.01,2013-10-20 02:18:00,
2013-10-19 21:19:00,47.8,29.6,29.84,NNW,338,0.0,0.0,49,0.00,,OVC090,0.00,VWS V14.01,2013-10-20 02:19:00,
2013-10-19 21:20:00,47.8,29.6,29.84,NNW,338,0.0,0.0,49,0.00,,OVC090,0.00,VWS V14.01,2013-10-20 02:20:00,
2013-10-19 21:22:00,47.8,29.6,29.84,NNW,338,0.0,0.0,49,0.00,,OVC090,0.00,VWS V14.01,2013-10-20 02:22:00,
2013-10-19 21:24:00,47.6,29.4,29.84,NNW,338,0.0,0.0,49,0.00,,OVC090,0.00,VWS V14.01,2013-10-20 02:24:00,
2013-10-19 21:25:00,47.4,29.2,29.84,NNW,338,0.0,0.0,49,0.00,,OVC090,0.00,VWS V14.01,2013-10-20 02:25:00,
2013-10-19 21:26:00,47.6,29.9,29.84,NNW,338,0.0,0.0,50,0.00,,OVC090,0.00,VWS V14.01,2013-10-20 02:26:00,
2013-10-19 21:27:00,47.3,29.6,29.84,NNW,338,0.0,0.0,50,0.00,,OVC090,0.00,VWS V14.01,2013-10-20 02:27:00,
2013-10-19 21:30:00,47.3,29.6,29.84,NNW,338,0.0,0.0,50,0.00,,OVC090,0.00,VWS V14.01,2013-10-20 02:30:00,
2013-10-19 21:32:00,47.3,29.6,29.84,NNW,338,0.0,0.0,50,0.00,,OVC090,0.00,VWS V14.01,2013-10-20 02:32:00,
2013-10-19 21:33:00,47.1,29.9,29.84,NNW,338,0.0,0.0,51,0.00,,OVC090,0.00,VWS V14.01,2013-10-20 02:33:00,
2013-10-19 21:35:00,46.7,29.5,29.84,NNW,338,0.0,0.0,51,0.00,,OVC090,0.00,VWS V14.01,2013-10-20 02:35:00,
2013-10-19 21:37:00,46.5,29.4,29.84,NNW,338,0.0,0.0,51,0.00,,OVC090,0.00,VWS V14.01,2013-10-20 02:37:00,
2013-10-19 21:40:00,46.4,29.8,29.84,NNW,338,0.0,0.0,52,0.00,,BKN090,0.00,VWS V14.01,2013-10-20 02:40:00,
2013-10-19 21:42:00,46.2,29.6,29.84,NNW,338,0.0,0.0,52,0.00,,BKN090,0.00,VWS V14.01,2013-10-20 02:42:00,
2013-10-19 21:43:00,46.0,29.8,29.84,NNW,338,0.0,0.0,53,0.00,,BKN090,0.00,VWS V14.01,2013-10-20 02:43:00,
2013-10-19 21:45:00,46.0,29.8,29.84,NNW,338,0.0,0.0,53,0.00,,BKN090,0.00,VWS V14.01,2013-10-20 02:45:00,
2013-10-19 21:47:00,46.0,29.8,29.84,NNW,338,0.0,0.0,53,0.00,,BKN090,0.00,VWS V14.01,2013-10-20 02:47:00,
2013-10-19 21:48:00,45.8,29.7,29.84,NNW,338,0.0,0.0,53,0.00,,BKN090,0.00,VWS V14.01,2013-10-20 02:48:00,
2013-10-19 21:50:00,45.8,30.1,29.84,NNW,338,0.0,0.0,54,0.00,,BKN090,0.00,VWS V14.01,2013-10-20 02:50:00,
2013-10-19 21:53:00,45.5,29.8,29.84,NNW,338,0.0,0.0,54,0.00,,BKN090,0.00,VWS V14.01,2013-10-20 02:53:00,
2013-10-19 21:54:00,45.5,29.8,29.84,NNW,338,0.0,0.0,54,0.00,,BKN090,0.00,VWS V14.01,2013-10-20 02:54:00,
2013-10-19 21:55:00,45.5,29.8,29.84,NNW,338,0.0,0.0,54,0.00,,BKN090,0.00,VWS V14.01,2013-10-20 02:55:00,
2013-10-19 21:56:00,45.3,29.6,29.84,NNW,338,0.0,0.0,54,0.00,,BKN090,0.00,VWS V14.01,2013-10-20 02:56:00,
2013-10-19 21:59:00,45.1,29.9,29.84,NNW,338,0.0,0.0,55,0.00,,BKN090,0.00,VWS V14.01,2013-10-20 02:59:00,
2013-10-19 22:00:00,45.1,29.9,29.84,NNW,338,0.0,0.0,55,0.00,,BKN090,0.00,VWS V14.01,2013-10-20 03:00:00,
2013-10-19 22:01:00,45.1,29.9,29.84,NNW,338,0.0,0.0,55,0.00,,BKN090,0.00,VWS V14.01,2013-10-20 03:01:00,
2013-10-19 22:02:00,45.1,29.9,29.84,NNW,338,0.0,0.0,55,0.00,,BKN090,0.00,VWS V14.01,2013-10-20 03:02:00,
2013-10-19 22:04:00,44.9,29.7,29.84,NNW,338,0.0,0.0,55,0.00,,BKN090,0.00,VWS V14.01,2013-10-20 03:04:00,
2013-10-19 22:05:00,44.7,29.5,29.84,NNW,338,0.0,0.0,55,0.00,,BKN090,0.00,VWS V14.01,2013-10-20 03:05:00,
2013-10-19 22:06:00,44.7,29.5,29.84,NNW,338,0.0,0.0,55,0.00,,BKN090,0.00,VWS V14.01,2013-10-20 03:06:00,
2013-10-19 22:07:00,44.7,29.5,29.84,NNW,338,0.0,0.0,55,0.00,,BKN090,0.00,VWS V14.01,2013-10-20 03:07:00,
2013-10-19 22:09:00,44.7,30.0,29.84,NNW,338,0.0,0.0,56,0.00,,BKN090,0.00,VWS V14.01,2013-10-20 03:09:00,
2013-10-19 22:12:00,44.7,30.0,29.84,NNW,338,0.0,0.0,56,0.00,,BKN090,0.00,VWS V14.01,2013-10-20 03:12:00,
2013-10-19 22:13:00,44.7,30.0,29.84,NNW,338,0.0,0.0,56,0.00,,BKN090,0.00,VWS V14.01,2013-10-20 03:13:00,
2013-10-19 22:15:00,44.4,29.7,29.84,NNW,338,0.0,0.0,56,0.00,,BKN090,0.00,VWS V14.01,2013-10-20 03:15:00,
2013-10-19 22:16:00,44.6,30.3,29.84,NNW,338,0.0,0.0,57,0.00,,BKN090,0.00,VWS V14.01,2013-10-20 03:16:00,
2013-10-19 22:18:00,44.4,30.1,29.84,NNW,338,0.0,0.0,57,0.00,,BKN090,0.00,VWS V14.01,2013-10-20 03:18:00,
2013-10-19 22:19:00,44.2,30.0,29.85,NNW,338,0.0,0.0,57,0.00,,BKN090,0.00,VWS V14.01,2013-10-20 03:19:00,
2013-10-19 22:20:00,44.2,30.0,29.84,NNW,338,0.0,0.0,57,0.00,,BKN090,0.00,VWS V14.01,2013-10-20 03:20:00,
2013-10-19 22:21:00,44.2,30.0,29.84,NNW,338,0.0,0.0,57,0.00,,BKN090,0.00,VWS V14.01,2013-10-20 03:21:00,
2013-10-19 22:24:00,44.0,29.8,29.84,NNW,338,0.0,0.0,57,0.00,,BKN090,0.00,VWS V14.01,2013-10-20 03:24:00,
2013-10-19 22:25:00,43.8,29.6,29.84,NNW,338,0.0,0.0,57,0.00,,BKN090,0.00,VWS V14.01,2013-10-20 03:25:00,
2013-10-19 22:26:00,43.7,29.5,29.84,NNW,338,0.0,0.0,57,0.00,,BKN090,0.00,VWS V14.01,2013-10-20 03:26:00,
2013-10-19 22:27:00,43.7,29.9,29.84,NNW,338,0.0,0.0,58,0.00,,BKN090,0.00,VWS V14.01,2013-10-20 03:27:00,
2013-10-19 22:29:00,43.5,30.1,29.84,NNW,338,0.0,0.0,59,0.00,,BKN090,0.00,VWS V14.01,2013-10-20 03:29:00,
2013-10-19 22:30:00,43.5,30.1,29.84,NNW,338,0.0,0.0,59,0.00,,BKN090,0.00,VWS V14.01,2013-10-20 03:30:00,
2013-10-19 22:31:00,43.5,30.1,29.84,NNW,338,0.0,0.0,59,0.00,,BKN090,0.00,VWS V14.01,2013-10-20 03:31:00,
2013-10-19 22:34:00,43.3,30.0,29.84,NNW,338,0.0,0.0,59,0.00,,BKN090,0.00,VWS V14.01,2013-10-20 03:34:00,
2013-10-19 22:35:00,43.3,30.0,29.84,NNW,338,0.0,0.0,59,0.00,,BKN090,0.00,VWS V14.01,2013-10-20 03:35:00,
2013-10-19 22:36:00,43.3,30.4,29.84,NNW,338,0.0,0.0,60,0.00,,BKN090,0.00,VWS V14.01,2013-10-20 03:36:00,
2013-10-19 22:38:00,43.1,30.2,29.84,NNW,338,0.0,0.0,60,0.00,,BKN090,0.00,VWS V14.01,2013-10-20 03:38:00,
2013-10-19 22:39:00,43.1,30.2,29.84,NNW,338,0.0,0.0,60,0.00,,BKN090,0.00,VWS V14.01,2013-10-20 03:39:00,
2013-10-19 22:40:00,43.1,30.2,29.84,NNW,338,0.0,0.0,60,0.00,,BKN090,0.00,VWS V14.01,2013-10-20 03:40:00,
2013-10-19 22:41:00,43.1,30.2,29.84,NNW,338,0.0,0.0,60,0.00,,CLR,0.00,VWS V14.01,2013-10-20 03:41:00,
2013-10-19 22:44:00,42.9,30.4,29.84,NNW,338,0.0,0.0,61,0.00,,CLR,0.00,VWS V14.01,2013-10-20 03:44:00,
2013-10-19 22:46:00,42.9,30.4,29.84,NNW,338,0.0,0.0,61,0.00,,CLR,0.00,VWS V14.01,2013-10-20 03:46:00,
2013-10-19 22:47:00,42.9,30.4,29.84,NNW,338,0.0,0.0,61,0.00,,CLR,0.00,VWS V14.01,2013-10-20 03:47:00,
2013-10-19 22:51:00,42.8,30.7,29.84,NNW,338,0.0,0.0,62,0.00,,CLR,0.00,VWS V14.01,2013-10-20 03:51:00,
2013-10-19 22:52:00,42.8,30.7,29.84,NNW,338,0.0,0.0,62,0.00,,CLR,0.00,VWS V14.01,2013-10-20 03:52:00,
2013-10-19 22:54:00,42.6,30.5,29.84,NNW,338,0.0,0.0,62,0.00,,CLR,0.00,VWS V14.01,2013-10-20 03:54:00,
2013-10-19 22:55:00,42.4,30.3,29.84,NNW,338,0.0,0.0,62,0.00,,CLR,0.00,VWS V14.01,2013-10-20 03:55:00,
2013-10-19 22:56:00,42.4,30.3,29.84,NNW,338,0.0,0.0,62,0.00,,CLR,0.00,VWS V14.01,2013-10-20 03:56:00,
2013-10-19 22:57:00,42.4,30.3,29.84,NNW,338,0.0,0.0,62,0.00,,CLR,0.00,VWS V14.01,2013-10-20 03:57:00,
2013-10-19 22:58:00,42.4,30.3,29.84,NNW,338,0.0,0.0,62,0.00,,CLR,0.00,VWS V14.01,2013-10-20 03:58:00,
2013-10-19 23:00:00,42.4,30.7,29.84,NW,315,0.0,0.0,63,0.00,,CLR,0.00,VWS V14.01,2013-10-20 04:00:00,
2013-10-19 23:01:00,42.4,30.7,29.84,NW,315,0.0,0.0,63,0.00,,CLR,0.00,VWS V14.01,2013-10-20 04:01:00,
2013-10-19 23:02:00,42.4,30.7,29.84,WSW,248,0.0,0.0,63,0.00,,CLR,0.00,VWS V14.01,2013-10-20 04:02:00,
2013-10-19 23:03:00,42.4,30.7,29.84,WSW,248,0.0,0.0,63,0.00,,CLR,0.00,VWS V14.01,2013-10-20 04:03:00,
2013-10-19 23:05:00,42.6,30.9,29.84,WSW,248,0.0,0.0,63,0.00,,CLR,0.00,VWS V14.01,2013-10-20 04:05:00,
2013-10-19 23:06:00,42.8,31.1,29.84,SW,225,0.0,0.0,63,0.00,,CLR,0.00,VWS V14.01,2013-10-20 04:06:00,
2013-10-19 23:08:00,42.9,31.2,29.84,SW,225,0.0,0.0,63,0.00,,CLR,0.00,VWS V14.01,2013-10-20 04:08:00,
2013-10-19 23:10:00,43.1,31.4,29.84,SW,225,0.0,0.0,63,0.00,,CLR,0.00,VWS V14.01,2013-10-20 04:10:00,
2013-10-19 23:11:00,43.1,31.4,29.84,SW,225,0.0,0.0,63,0.00,,CLR,0.00,VWS V14.01,2013-10-20 04:11:00,
2013-10-19 23:12:00,42.9,31.2,29.84,NNW,338,28.0,28.0,63,0.00,,CLR,0.00,VWS V14.01,2013-10-20 04:12:00,
2013-10-19 23:14:00,43.1,31.8,29.84,SW,225,0.0,0.0,64,0.00,,CLR,0.00,VWS V14.01,2013-10-20 04:14:00,
2013-10-19 23:16:00,43.1,31.8,29.84,SW,225,0.0,0.0,64,0.00,,CLR,0.00,VWS V14.01,2013-10-20 04:16:00,
2013-10-19 23:17:00,43.3,32.0,29.84,SW,225,0.0,0.0,64,0.00,,CLR,0.00,VWS V14.01,2013-10-20 04:17:00,
2013-10-19 23:18:00,43.1,31.8,29.84,SW,225,0.0,0.0,64,0.00,,CLR,0.00,VWS V14.01,2013-10-20 04:18:00,
2013-10-19 23:20:00,43.3,31.6,29.84,SW,225,0.0,0.0,63,0.00,,CLR,0.00,VWS V14.01,2013-10-20 04:20:00,
2013-10-19 23:22:00,43.1,31.4,29.84,SW,225,0.0,0.0,63,0.00,,CLR,0.00,VWS V14.01,2013-10-20 04:22:00,
2013-10-19 23:23:00,42.9,31.2,29.84,SW,225,0.0,0.0,63,0.00,,CLR,0.00,VWS V14.01,2013-10-20 04:23:00,
2013-10-19 23:24:00,43.1,31.4,29.84,SW,225,0.0,0.0,63,0.00,,CLR,0.00,VWS V14.01,2013-10-20 04:24:00,
2013-10-19 23:26:00,43.1,31.4,29.84,SW,225,0.0,0.0,63,0.00,,CLR,0.00,VWS V14.01,2013-10-20 04:26:00,
2013-10-19 23:28:00,43.1,31.8,29.84,North,0,0.0,0.0,64,0.00,,CLR,0.00,VWS V14.01,2013-10-20 04:28:00,
2013-10-19 23:29:00,43.1,31.8,29.84,SW,225,0.0,0.0,64,0.00,,CLR,0.00,VWS V14.01,2013-10-20 04:29:00,
2013-10-19 23:30:00,43.1,31.8,29.84,SW,225,0.0,0.0,64,0.00,,CLR,0.00,VWS V14.01,2013-10-20 04:30:00,
2013-10-19 23:32:00,42.9,31.6,29.84,SW,225,0.0,0.0,64,0.00,,CLR,0.00,VWS V14.01,2013-10-20 04:32:00,
2013-10-19 23:35:00,43.1,31.8,29.84,SW,225,0.0,0.0,64,0.00,,CLR,0.00,VWS V14.01,2013-10-20 04:35:00,
2013-10-19 23:36:00,43.3,32.0,29.84,SW,225,0.0,0.0,64,0.00,,CLR,0.00,VWS V14.01,2013-10-20 04:36:00,
2013-10-19 23:38:00,43.3,32.0,29.84,SW,225,0.0,0.0,64,0.00,,CLR,0.00,VWS V14.01,2013-10-20 04:38:00,
2013-10-19 23:40:00,43.3,32.3,29.84,SW,225,0.0,0.0,65,0.00,,BKN075,0.00,VWS V14.01,2013-10-20 04:40:00,
2013-10-19 23:41:00,43.3,32.3,29.84,SW,225,0.0,0.0,65,0.00,,BKN075,0.00,VWS V14.01,2013-10-20 04:41:00,
2013-10-19 23:42:00,43.3,32.3,29.84,SW,225,0.0,0.0,65,0.00,,BKN075,0.00,VWS V14.01,2013-10-20 04:42:00,
2013-10-19 23:44:00,43.1,32.2,29.84,SW,225,0.0,0.0,65,0.00,,BKN075,0.00,VWS V14.01,2013-10-20 04:44:00,
2013-10-19 23:46:00,43.1,32.2,29.84,SW,225,0.0,0.0,65,0.00,,BKN075,0.00,VWS V14.01,2013-10-20 04:46:00,
2013-10-19 23:48:00,43.1,32.2,29.84,SW,225,0.0,0.0,65,0.00,,BKN075,0.00,VWS V14.01,2013-10-20 04:48:00,
2013-10-19 23:49:00,43.1,32.2,29.85,SW,225,0.0,0.0,65,0.00,,BKN075,0.00,VWS V14.01,2013-10-20 04:49:00,
2013-10-19 23:50:00,43.1,32.2,29.84,SW,225,0.0,0.0,65,0.00,,BKN075,0.00,VWS V14.01,2013-10-20 04:50:00,
2013-10-19 23:53:00,42.9,32.0,29.84,SW,225,0.0,0.0,65,0.00,,BKN075,0.00,VWS V14.01,2013-10-20 04:53:00,
2013-10-19 23:54:00,42.9,32.0,29.84,SW,225,0.0,0.0,65,0.00,,BKN075,0.00,VWS V14.01,2013-10-20 04:54:00,
2013-10-19 23:56:00,42.8,31.9,29.84,SW,225,0.0,0.0,65,0.00,,BKN075,0.00,VWS V14.01,2013-10-20 04:56:00,
2013-10-19 23:57:00,42.6,31.7,29.84,SW,225,0.0,0.0,65,0.00,,BKN075,0.00,VWS V14.01,2013-10-20 04:57:00,
2013-10-19 23:58:00,42.6,31.7,29.84,SW,225,0.0,0.0,65,0.00,,BKN075,0.00,VWS V14.01,2013-10-20 04:58:00,
2013-10-19 23:59:00,42.6,31.7,29.84,SW,225,0.0,0.0,65,0.00,,BKN075,0.00,VWS V14.01,2013-10-20 04:59:00,